<?xml version="1.0" encoding="UTF-8" standalone="no" ?>
<gpx xmlns="http://www.topografix.com/GPX/1/1" xmlns:xsi="http://www.w3.org/2001/XMLSchema-instance" xsi:schemaLocation="http://www.topografix.com/GPX/1/1 http://www.topografix.com/GPX/1/1/gpx.xsd" version="1.1" creator="VisuGPX - https://www.visugpx.com">
  <metadata>
    <name>Rochers St Ours_ Tour des_vc</name>
    <desc><![CDATA[Prépa Séjour Estival 2023]]></desc>
  </metadata>
  <trk>
    <name><![CDATA[Rochers St Ours_ Tour des_vc]]></name>
    <extensions>
      <line xmlns="http://www.topografix.com/GPX/gpx_style/0/2">
        <width>3</width>
      </line>
    </extensions>
    <trkseg>
      <trkpt lat="44.5251" lon="6.79842">
        <ele>1887</ele>
        <time>2013-08-22T06:51:13.000Z</time>
      </trkpt>
      <trkpt lat="44.52515" lon="6.79871">
        <ele>1889</ele>
        <time>2013-08-22T06:51:29.000Z</time>
      </trkpt>
      <trkpt lat="44.52522" lon="6.79894">
        <ele>1892</ele>
        <time>2013-08-22T06:51:43.000Z</time>
      </trkpt>
      <trkpt lat="44.5253" lon="6.7993">
        <ele>1892</ele>
        <time>2013-08-22T06:51:56.000Z</time>
      </trkpt>
      <trkpt lat="44.52538" lon="6.79974">
        <ele>1892</ele>
        <time>2013-08-22T06:52:10.000Z</time>
      </trkpt>
      <trkpt lat="44.52551" lon="6.80025">
        <ele>1891</ele>
        <time>2013-08-22T06:52:27.000Z</time>
      </trkpt>
      <trkpt lat="44.52549" lon="6.80069">
        <ele>1892</ele>
        <time>2013-08-22T06:52:42.000Z</time>
      </trkpt>
      <trkpt lat="44.52548" lon="6.8011">
        <ele>1892</ele>
        <time>2013-08-22T06:52:57.000Z</time>
      </trkpt>
      <trkpt lat="44.52551" lon="6.8014">
        <ele>1894</ele>
        <time>2013-08-22T06:53:11.000Z</time>
      </trkpt>
      <trkpt lat="44.52563" lon="6.80185">
        <ele>1897</ele>
        <time>2013-08-22T06:53:30.000Z</time>
      </trkpt>
      <trkpt lat="44.5257" lon="6.80209">
        <ele>1898</ele>
        <time>2013-08-22T06:53:40.000Z</time>
      </trkpt>
      <trkpt lat="44.52584" lon="6.80244">
        <ele>1899</ele>
        <time>2013-08-22T06:53:55.000Z</time>
      </trkpt>
      <trkpt lat="44.52593" lon="6.80283">
        <ele>1899</ele>
        <time>2013-08-22T06:54:09.000Z</time>
      </trkpt>
      <trkpt lat="44.52598" lon="6.80337">
        <ele>1900</ele>
        <time>2013-08-22T06:54:28.000Z</time>
      </trkpt>
      <trkpt lat="44.526" lon="6.80379">
        <ele>1903</ele>
        <time>2013-08-22T06:54:45.000Z</time>
      </trkpt>
      <trkpt lat="44.526" lon="6.80424">
        <ele>1903</ele>
        <time>2013-08-22T06:54:57.000Z</time>
      </trkpt>
      <trkpt lat="44.52597" lon="6.80462">
        <ele>1905</ele>
        <time>2013-08-22T06:55:15.000Z</time>
      </trkpt>
      <trkpt lat="44.52589" lon="6.80486">
        <ele>1907</ele>
        <time>2013-08-22T06:55:30.000Z</time>
      </trkpt>
      <trkpt lat="44.52581" lon="6.80515">
        <ele>1911</ele>
        <time>2013-08-22T06:55:47.000Z</time>
      </trkpt>
      <trkpt lat="44.52571" lon="6.80541">
        <ele>1912</ele>
        <time>2013-08-22T06:56:01.000Z</time>
      </trkpt>
      <trkpt lat="44.52564" lon="6.8058">
        <ele>1914</ele>
        <time>2013-08-22T06:56:18.000Z</time>
      </trkpt>
      <trkpt lat="44.52561" lon="6.80627">
        <ele>1916</ele>
        <time>2013-08-22T06:56:37.000Z</time>
      </trkpt>
      <trkpt lat="44.52547" lon="6.80689">
        <ele>1915</ele>
        <time>2013-08-22T06:56:55.000Z</time>
      </trkpt>
      <trkpt lat="44.52527" lon="6.80745">
        <ele>1915</ele>
        <time>2013-08-22T06:57:11.000Z</time>
      </trkpt>
      <trkpt lat="44.52506" lon="6.80768">
        <ele>1916</ele>
        <time>2013-08-22T06:57:24.000Z</time>
      </trkpt>
      <trkpt lat="44.52495" lon="6.80771">
        <ele>1916</ele>
        <time>2013-08-22T06:57:38.000Z</time>
      </trkpt>
      <trkpt lat="44.52485" lon="6.80779">
        <ele>1917</ele>
        <time>2013-08-22T06:57:47.000Z</time>
      </trkpt>
      <trkpt lat="44.52472" lon="6.80764">
        <ele>1917</ele>
        <time>2013-08-22T06:57:58.000Z</time>
      </trkpt>
      <trkpt lat="44.52474" lon="6.80747">
        <ele>1918</ele>
        <time>2013-08-22T06:58:15.000Z</time>
      </trkpt>
      <trkpt lat="44.5247" lon="6.80745">
        <ele>1919</ele>
        <time>2013-08-22T06:58:22.000Z</time>
      </trkpt>
      <trkpt lat="44.52464" lon="6.80747">
        <ele>1920</ele>
        <time>2013-08-22T06:58:33.000Z</time>
      </trkpt>
      <trkpt lat="44.52448" lon="6.80754">
        <ele>1923</ele>
        <time>2013-08-22T06:59:33.000Z</time>
      </trkpt>
      <trkpt lat="44.52436" lon="6.80754">
        <ele>1924</ele>
        <time>2013-08-22T06:59:46.000Z</time>
      </trkpt>
      <trkpt lat="44.52426" lon="6.8076">
        <ele>1926</ele>
        <time>2013-08-22T06:59:56.000Z</time>
      </trkpt>
      <trkpt lat="44.52422" lon="6.80774">
        <ele>1927</ele>
        <time>2013-08-22T07:00:03.000Z</time>
      </trkpt>
      <trkpt lat="44.52403" lon="6.80805">
        <ele>1928</ele>
        <time>2013-08-22T07:00:21.000Z</time>
      </trkpt>
      <trkpt lat="44.52391" lon="6.80821">
        <ele>1930</ele>
        <time>2013-08-22T07:00:35.000Z</time>
      </trkpt>
      <trkpt lat="44.52377" lon="6.80845">
        <ele>1930</ele>
        <time>2013-08-22T07:00:49.000Z</time>
      </trkpt>
      <trkpt lat="44.52368" lon="6.80866">
        <ele>1930</ele>
        <time>2013-08-22T07:00:58.000Z</time>
      </trkpt>
      <trkpt lat="44.52352" lon="6.80885">
        <ele>1932</ele>
        <time>2013-08-22T07:01:16.000Z</time>
      </trkpt>
      <trkpt lat="44.52343" lon="6.80897">
        <ele>1935</ele>
        <time>2013-08-22T07:01:27.000Z</time>
      </trkpt>
      <trkpt lat="44.52328" lon="6.80898">
        <ele>1937</ele>
        <time>2013-08-22T07:01:41.000Z</time>
      </trkpt>
      <trkpt lat="44.52324" lon="6.80878">
        <ele>1940</ele>
        <time>2013-08-22T07:01:55.000Z</time>
      </trkpt>
      <trkpt lat="44.52328" lon="6.80852">
        <ele>1941</ele>
        <time>2013-08-22T07:02:11.000Z</time>
      </trkpt>
      <trkpt lat="44.5233" lon="6.80823">
        <ele>1942</ele>
        <time>2013-08-22T07:02:27.000Z</time>
      </trkpt>
      <trkpt lat="44.52328" lon="6.80793">
        <ele>1943</ele>
        <time>2013-08-22T07:02:42.000Z</time>
      </trkpt>
      <trkpt lat="44.52319" lon="6.80768">
        <ele>1945</ele>
        <time>2013-08-22T07:02:57.000Z</time>
      </trkpt>
      <trkpt lat="44.52296" lon="6.80781">
        <ele>1948</ele>
        <time>2013-08-22T07:03:15.000Z</time>
      </trkpt>
      <trkpt lat="44.52276" lon="6.80782">
        <ele>1950</ele>
        <time>2013-08-22T07:03:30.000Z</time>
      </trkpt>
      <trkpt lat="44.5226" lon="6.80753">
        <ele>1951</ele>
        <time>2013-08-22T07:03:47.000Z</time>
      </trkpt>
      <trkpt lat="44.52244" lon="6.80743">
        <ele>1953</ele>
        <time>2013-08-22T07:04:03.000Z</time>
      </trkpt>
      <trkpt lat="44.52239" lon="6.80753">
        <ele>1954</ele>
        <time>2013-08-22T07:04:11.000Z</time>
      </trkpt>
      <trkpt lat="44.52232" lon="6.80767">
        <ele>1955</ele>
        <time>2013-08-22T07:04:26.000Z</time>
      </trkpt>
      <trkpt lat="44.52219" lon="6.80785">
        <ele>1957</ele>
        <time>2013-08-22T07:04:40.000Z</time>
      </trkpt>
      <trkpt lat="44.52207" lon="6.80786">
        <ele>1958</ele>
        <time>2013-08-22T07:04:57.000Z</time>
      </trkpt>
      <trkpt lat="44.52198" lon="6.80759">
        <ele>1960</ele>
        <time>2013-08-22T07:05:11.000Z</time>
      </trkpt>
      <trkpt lat="44.52198" lon="6.80754">
        <ele>1961</ele>
        <time>2013-08-22T07:05:16.000Z</time>
      </trkpt>
      <trkpt lat="44.52195" lon="6.80722">
        <ele>1963</ele>
        <time>2013-08-22T07:05:34.000Z</time>
      </trkpt>
      <trkpt lat="44.52184" lon="6.80701">
        <ele>1966</ele>
        <time>2013-08-22T07:05:50.000Z</time>
      </trkpt>
      <trkpt lat="44.52176" lon="6.8069">
        <ele>1967</ele>
        <time>2013-08-22T07:06:00.000Z</time>
      </trkpt>
      <trkpt lat="44.52163" lon="6.80675">
        <ele>1970</ele>
        <time>2013-08-22T07:06:15.000Z</time>
      </trkpt>
      <trkpt lat="44.52152" lon="6.80664">
        <ele>1972</ele>
        <time>2013-08-22T07:06:27.000Z</time>
      </trkpt>
      <trkpt lat="44.52148" lon="6.80649">
        <ele>1973</ele>
        <time>2013-08-22T07:06:38.000Z</time>
      </trkpt>
      <trkpt lat="44.52142" lon="6.8062">
        <ele>1975</ele>
        <time>2013-08-22T07:06:53.000Z</time>
      </trkpt>
      <trkpt lat="44.52139" lon="6.80604">
        <ele>1977</ele>
        <time>2013-08-22T07:07:04.000Z</time>
      </trkpt>
      <trkpt lat="44.52138" lon="6.80581">
        <ele>1979</ele>
        <time>2013-08-22T07:07:19.000Z</time>
      </trkpt>
      <trkpt lat="44.52133" lon="6.80553">
        <ele>1981</ele>
        <time>2013-08-22T07:07:37.000Z</time>
      </trkpt>
      <trkpt lat="44.52131" lon="6.80537">
        <ele>1983</ele>
        <time>2013-08-22T07:07:48.000Z</time>
      </trkpt>
      <trkpt lat="44.5213" lon="6.80514">
        <ele>1985</ele>
        <time>2013-08-22T07:08:03.000Z</time>
      </trkpt>
      <trkpt lat="44.52125" lon="6.80488">
        <ele>1988</ele>
        <time>2013-08-22T07:08:19.000Z</time>
      </trkpt>
      <trkpt lat="44.52123" lon="6.80465">
        <ele>1990</ele>
        <time>2013-08-22T07:08:32.000Z</time>
      </trkpt>
      <trkpt lat="44.52123" lon="6.80454">
        <ele>1991</ele>
        <time>2013-08-22T07:08:41.000Z</time>
      </trkpt>
      <trkpt lat="44.52123" lon="6.80442">
        <ele>1992</ele>
        <time>2013-08-22T07:08:49.000Z</time>
      </trkpt>
      <trkpt lat="44.52116" lon="6.80422">
        <ele>1993</ele>
        <time>2013-08-22T07:09:03.000Z</time>
      </trkpt>
      <trkpt lat="44.52107" lon="6.80426">
        <ele>1995</ele>
        <time>2013-08-22T07:09:12.000Z</time>
      </trkpt>
      <trkpt lat="44.52103" lon="6.80438">
        <ele>1996</ele>
        <time>2013-08-22T07:09:20.000Z</time>
      </trkpt>
      <trkpt lat="44.52106" lon="6.80465">
        <ele>1998</ele>
        <time>2013-08-22T07:09:37.000Z</time>
      </trkpt>
      <trkpt lat="44.52096" lon="6.80479">
        <ele>1999</ele>
        <time>2013-08-22T07:09:49.000Z</time>
      </trkpt>
      <trkpt lat="44.52078" lon="6.80475">
        <ele>2001</ele>
        <time>2013-08-22T07:10:05.000Z</time>
      </trkpt>
      <trkpt lat="44.52072" lon="6.80464">
        <ele>2003</ele>
        <time>2013-08-22T07:10:13.000Z</time>
      </trkpt>
      <trkpt lat="44.52066" lon="6.80448">
        <ele>2004</ele>
        <time>2013-08-22T07:10:24.000Z</time>
      </trkpt>
      <trkpt lat="44.52059" lon="6.80425">
        <ele>2006</ele>
        <time>2013-08-22T07:10:39.000Z</time>
      </trkpt>
      <trkpt lat="44.52053" lon="6.804">
        <ele>2009</ele>
        <time>2013-08-22T07:10:56.000Z</time>
      </trkpt>
      <trkpt lat="44.52051" lon="6.80386">
        <ele>2011</ele>
        <time>2013-08-22T07:11:06.000Z</time>
      </trkpt>
      <trkpt lat="44.5205" lon="6.80362">
        <ele>2013</ele>
        <time>2013-08-22T07:11:22.000Z</time>
      </trkpt>
      <trkpt lat="44.52046" lon="6.80331">
        <ele>2015</ele>
        <time>2013-08-22T07:11:40.000Z</time>
      </trkpt>
      <trkpt lat="44.52047" lon="6.80306">
        <ele>2018</ele>
        <time>2013-08-22T07:11:57.000Z</time>
      </trkpt>
      <trkpt lat="44.5204" lon="6.80286">
        <ele>2020</ele>
        <time>2013-08-22T07:12:09.000Z</time>
      </trkpt>
      <trkpt lat="44.52027" lon="6.80267">
        <ele>2023</ele>
        <time>2013-08-22T07:12:24.000Z</time>
      </trkpt>
      <trkpt lat="44.52013" lon="6.80247">
        <ele>2024</ele>
        <time>2013-08-22T07:12:39.000Z</time>
      </trkpt>
      <trkpt lat="44.51996" lon="6.80214">
        <ele>2026</ele>
        <time>2013-08-22T07:12:59.000Z</time>
      </trkpt>
      <trkpt lat="44.5199" lon="6.80192">
        <ele>2028</ele>
        <time>2013-08-22T07:13:13.000Z</time>
      </trkpt>
      <trkpt lat="44.51984" lon="6.80171">
        <ele>2030</ele>
        <time>2013-08-22T07:13:26.000Z</time>
      </trkpt>
      <trkpt lat="44.51979" lon="6.80152">
        <ele>2032</ele>
        <time>2013-08-22T07:13:40.000Z</time>
      </trkpt>
      <trkpt lat="44.51967" lon="6.80132">
        <ele>2035</ele>
        <time>2013-08-22T07:13:55.000Z</time>
      </trkpt>
      <trkpt lat="44.51966" lon="6.80115">
        <ele>2036</ele>
        <time>2013-08-22T07:14:06.000Z</time>
      </trkpt>
      <trkpt lat="44.51968" lon="6.80084">
        <ele>2039</ele>
        <time>2013-08-22T07:14:24.000Z</time>
      </trkpt>
      <trkpt lat="44.51967" lon="6.80065">
        <ele>2041</ele>
        <time>2013-08-22T07:14:35.000Z</time>
      </trkpt>
      <trkpt lat="44.51955" lon="6.80043">
        <ele>2043</ele>
        <time>2013-08-22T07:14:50.000Z</time>
      </trkpt>
      <trkpt lat="44.51948" lon="6.80031">
        <ele>2045</ele>
        <time>2013-08-22T07:14:59.000Z</time>
      </trkpt>
      <trkpt lat="44.51938" lon="6.80001">
        <ele>2048</ele>
        <time>2013-08-22T07:15:16.000Z</time>
      </trkpt>
      <trkpt lat="44.51931" lon="6.79982">
        <ele>2049</ele>
        <time>2013-08-22T07:15:29.000Z</time>
      </trkpt>
      <trkpt lat="44.51917" lon="6.79975">
        <ele>2052</ele>
        <time>2013-08-22T07:15:42.000Z</time>
      </trkpt>
      <trkpt lat="44.51907" lon="6.7998">
        <ele>2053</ele>
        <time>2013-08-22T07:15:50.000Z</time>
      </trkpt>
      <trkpt lat="44.51899" lon="6.79991">
        <ele>2054</ele>
        <time>2013-08-22T07:15:59.000Z</time>
      </trkpt>
      <trkpt lat="44.51888" lon="6.8002">
        <ele>2056</ele>
        <time>2013-08-22T07:16:13.000Z</time>
      </trkpt>
      <trkpt lat="44.51892" lon="6.80034">
        <ele>2057</ele>
        <time>2013-08-22T07:16:26.000Z</time>
      </trkpt>
      <trkpt lat="44.51895" lon="6.80042">
        <ele>2059</ele>
        <time>2013-08-22T07:16:36.000Z</time>
      </trkpt>
      <trkpt lat="44.51892" lon="6.80057">
        <ele>2061</ele>
        <time>2013-08-22T07:16:48.000Z</time>
      </trkpt>
      <trkpt lat="44.51882" lon="6.80046">
        <ele>2062</ele>
        <time>2013-08-22T07:16:57.000Z</time>
      </trkpt>
      <trkpt lat="44.51871" lon="6.80029">
        <ele>2063</ele>
        <time>2013-08-22T07:17:08.000Z</time>
      </trkpt>
      <trkpt lat="44.51865" lon="6.80018">
        <ele>2064</ele>
        <time>2013-08-22T07:17:16.000Z</time>
      </trkpt>
      <trkpt lat="44.51862" lon="6.79995">
        <ele>2066</ele>
        <time>2013-08-22T07:17:31.000Z</time>
      </trkpt>
      <trkpt lat="44.51863" lon="6.79971">
        <ele>2068</ele>
        <time>2013-08-22T07:17:46.000Z</time>
      </trkpt>
      <trkpt lat="44.51867" lon="6.79956">
        <ele>2070</ele>
        <time>2013-08-22T07:17:58.000Z</time>
      </trkpt>
      <trkpt lat="44.51872" lon="6.7994">
        <ele>2072</ele>
        <time>2013-08-22T07:18:09.000Z</time>
      </trkpt>
      <trkpt lat="44.5188" lon="6.79921">
        <ele>2074</ele>
        <time>2013-08-22T07:18:22.000Z</time>
      </trkpt>
      <trkpt lat="44.51883" lon="6.79897">
        <ele>2076</ele>
        <time>2013-08-22T07:18:36.000Z</time>
      </trkpt>
      <trkpt lat="44.51881" lon="6.79868">
        <ele>2078</ele>
        <time>2013-08-22T07:18:51.000Z</time>
      </trkpt>
      <trkpt lat="44.51891" lon="6.79853">
        <ele>2080</ele>
        <time>2013-08-22T07:19:05.000Z</time>
      </trkpt>
      <trkpt lat="44.5191" lon="6.79847">
        <ele>2082</ele>
        <time>2013-08-22T07:19:19.000Z</time>
      </trkpt>
      <trkpt lat="44.5192" lon="6.79836">
        <ele>2083</ele>
        <time>2013-08-22T07:19:28.000Z</time>
      </trkpt>
      <trkpt lat="44.51933" lon="6.79808">
        <ele>2087</ele>
        <time>2013-08-22T07:19:47.000Z</time>
      </trkpt>
      <trkpt lat="44.51939" lon="6.79785">
        <ele>2090</ele>
        <time>2013-08-22T07:20:03.000Z</time>
      </trkpt>
      <trkpt lat="44.51932" lon="6.79767">
        <ele>2092</ele>
        <time>2013-08-22T07:20:16.000Z</time>
      </trkpt>
      <trkpt lat="44.51921" lon="6.79768">
        <ele>2095</ele>
        <time>2013-08-22T07:20:29.000Z</time>
      </trkpt>
      <trkpt lat="44.51902" lon="6.79777">
        <ele>2096</ele>
        <time>2013-08-22T07:20:44.000Z</time>
      </trkpt>
      <trkpt lat="44.51882" lon="6.79784">
        <ele>2098</ele>
        <time>2013-08-22T07:21:00.000Z</time>
      </trkpt>
      <trkpt lat="44.51864" lon="6.79802">
        <ele>2099</ele>
        <time>2013-08-22T07:21:14.000Z</time>
      </trkpt>
      <trkpt lat="44.51852" lon="6.79823">
        <ele>2101</ele>
        <time>2013-08-22T07:21:29.000Z</time>
      </trkpt>
      <trkpt lat="44.51847" lon="6.79839">
        <ele>2102</ele>
        <time>2013-08-22T07:21:40.000Z</time>
      </trkpt>
      <trkpt lat="44.51841" lon="6.79857">
        <ele>2104</ele>
        <time>2013-08-22T07:21:52.000Z</time>
      </trkpt>
      <trkpt lat="44.51826" lon="6.79883">
        <ele>2107</ele>
        <time>2013-08-22T07:22:09.000Z</time>
      </trkpt>
      <trkpt lat="44.51813" lon="6.79895">
        <ele>2109</ele>
        <time>2013-08-22T07:22:20.000Z</time>
      </trkpt>
      <trkpt lat="44.51814" lon="6.79881">
        <ele>2110</ele>
        <time>2013-08-22T07:22:30.000Z</time>
      </trkpt>
      <trkpt lat="44.51818" lon="6.79866">
        <ele>2111</ele>
        <time>2013-08-22T07:22:38.000Z</time>
      </trkpt>
      <trkpt lat="44.51818" lon="6.79839">
        <ele>2113</ele>
        <time>2013-08-22T07:22:53.000Z</time>
      </trkpt>
      <trkpt lat="44.51812" lon="6.79805">
        <ele>2116</ele>
        <time>2013-08-22T07:23:10.000Z</time>
      </trkpt>
      <trkpt lat="44.51822" lon="6.79782">
        <ele>2119</ele>
        <time>2013-08-22T07:23:25.000Z</time>
      </trkpt>
      <trkpt lat="44.51825" lon="6.79773">
        <ele>2120</ele>
        <time>2013-08-22T07:23:30.000Z</time>
      </trkpt>
      <trkpt lat="44.51823" lon="6.7974">
        <ele>2122</ele>
        <time>2013-08-22T07:23:47.000Z</time>
      </trkpt>
      <trkpt lat="44.51818" lon="6.79715">
        <ele>2125</ele>
        <time>2013-08-22T07:24:03.000Z</time>
      </trkpt>
      <trkpt lat="44.51815" lon="6.79696">
        <ele>2126</ele>
        <time>2013-08-22T07:24:14.000Z</time>
      </trkpt>
      <trkpt lat="44.51808" lon="6.79675">
        <ele>2128</ele>
        <time>2013-08-22T07:24:27.000Z</time>
      </trkpt>
      <trkpt lat="44.51799" lon="6.79662">
        <ele>2130</ele>
        <time>2013-08-22T07:24:38.000Z</time>
      </trkpt>
      <trkpt lat="44.51785" lon="6.79644">
        <ele>2132</ele>
        <time>2013-08-22T07:24:53.000Z</time>
      </trkpt>
      <trkpt lat="44.51775" lon="6.79627">
        <ele>2132</ele>
        <time>2013-08-22T07:25:07.000Z</time>
      </trkpt>
      <trkpt lat="44.51773" lon="6.79623">
        <ele>2132</ele>
        <time>2013-08-22T07:25:45.000Z</time>
      </trkpt>
      <trkpt lat="44.51753" lon="6.79599">
        <ele>2134</ele>
        <time>2013-08-22T07:28:36.000Z</time>
      </trkpt>
      <trkpt lat="44.51738" lon="6.79566">
        <ele>2134</ele>
        <time>2013-08-22T07:28:47.000Z</time>
      </trkpt>
      <trkpt lat="44.51711" lon="6.79524">
        <ele>2132</ele>
        <time>2013-08-22T07:28:56.000Z</time>
      </trkpt>
      <trkpt lat="44.51707" lon="6.7948">
        <ele>2134</ele>
        <time>2013-08-22T07:29:09.000Z</time>
      </trkpt>
      <trkpt lat="44.51713" lon="6.79446">
        <ele>2135</ele>
        <time>2013-08-22T07:29:22.000Z</time>
      </trkpt>
      <trkpt lat="44.51722" lon="6.79422">
        <ele>2138</ele>
        <time>2013-08-22T07:29:38.000Z</time>
      </trkpt>
      <trkpt lat="44.51724" lon="6.79394">
        <ele>2141</ele>
        <time>2013-08-22T07:29:53.000Z</time>
      </trkpt>
      <trkpt lat="44.51716" lon="6.79363">
        <ele>2144</ele>
        <time>2013-08-22T07:30:11.000Z</time>
      </trkpt>
      <trkpt lat="44.51707" lon="6.79336">
        <ele>2145</ele>
        <time>2013-08-22T07:30:28.000Z</time>
      </trkpt>
      <trkpt lat="44.51698" lon="6.7931">
        <ele>2148</ele>
        <time>2013-08-22T07:30:45.000Z</time>
      </trkpt>
      <trkpt lat="44.51682" lon="6.79295">
        <ele>2150</ele>
        <time>2013-08-22T07:30:59.000Z</time>
      </trkpt>
      <trkpt lat="44.51682" lon="6.79278">
        <ele>2151</ele>
        <time>2013-08-22T07:31:11.000Z</time>
      </trkpt>
      <trkpt lat="44.51693" lon="6.79251">
        <ele>2154</ele>
        <time>2013-08-22T07:31:28.000Z</time>
      </trkpt>
      <trkpt lat="44.51706" lon="6.79228">
        <ele>2156</ele>
        <time>2013-08-22T07:31:42.000Z</time>
      </trkpt>
      <trkpt lat="44.51723" lon="6.7922">
        <ele>2158</ele>
        <time>2013-08-22T07:31:57.000Z</time>
      </trkpt>
      <trkpt lat="44.51731" lon="6.79216">
        <ele>2159</ele>
        <time>2013-08-22T07:32:03.000Z</time>
      </trkpt>
      <trkpt lat="44.51745" lon="6.79199">
        <ele>2162</ele>
        <time>2013-08-22T07:32:15.000Z</time>
      </trkpt>
      <trkpt lat="44.51746" lon="6.79192">
        <ele>2162</ele>
        <time>2013-08-22T07:32:18.000Z</time>
      </trkpt>
      <trkpt lat="44.51745" lon="6.7917">
        <ele>2164</ele>
        <time>2013-08-22T07:32:31.000Z</time>
      </trkpt>
      <trkpt lat="44.51739" lon="6.79143">
        <ele>2167</ele>
        <time>2013-08-22T07:32:47.000Z</time>
      </trkpt>
      <trkpt lat="44.51733" lon="6.7913">
        <ele>2168</ele>
        <time>2013-08-22T07:32:57.000Z</time>
      </trkpt>
      <trkpt lat="44.51728" lon="6.791">
        <ele>2170</ele>
        <time>2013-08-22T07:33:15.000Z</time>
      </trkpt>
      <trkpt lat="44.51716" lon="6.79071">
        <ele>2172</ele>
        <time>2013-08-22T07:33:33.000Z</time>
      </trkpt>
      <trkpt lat="44.51714" lon="6.79063">
        <ele>2173</ele>
        <time>2013-08-22T07:34:04.000Z</time>
      </trkpt>
      <trkpt lat="44.51712" lon="6.79062">
        <ele>2173</ele>
        <time>2013-08-22T07:34:09.000Z</time>
      </trkpt>
      <trkpt lat="44.51707" lon="6.79076">
        <ele>2175</ele>
        <time>2013-08-22T07:34:25.000Z</time>
      </trkpt>
      <trkpt lat="44.51703" lon="6.79094">
        <ele>2178</ele>
        <time>2013-08-22T07:34:43.000Z</time>
      </trkpt>
      <trkpt lat="44.51702" lon="6.79103">
        <ele>2179</ele>
        <time>2013-08-22T07:34:51.000Z</time>
      </trkpt>
      <trkpt lat="44.51698" lon="6.79117">
        <ele>2181</ele>
        <time>2013-08-22T07:35:08.000Z</time>
      </trkpt>
      <trkpt lat="44.51696" lon="6.7912">
        <ele>2181</ele>
        <time>2013-08-22T07:35:14.000Z</time>
      </trkpt>
      <trkpt lat="44.51693" lon="6.79129">
        <ele>2182</ele>
        <time>2013-08-22T07:35:29.000Z</time>
      </trkpt>
      <trkpt lat="44.51688" lon="6.79145">
        <ele>2183</ele>
        <time>2013-08-22T07:35:46.000Z</time>
      </trkpt>
      <trkpt lat="44.51685" lon="6.79158">
        <ele>2184</ele>
        <time>2013-08-22T07:36:02.000Z</time>
      </trkpt>
      <trkpt lat="44.51683" lon="6.79164">
        <ele>2184</ele>
        <time>2013-08-22T07:36:44.000Z</time>
      </trkpt>
      <trkpt lat="44.51679" lon="6.79169">
        <ele>2184</ele>
        <time>2013-08-22T07:36:51.000Z</time>
      </trkpt>
      <trkpt lat="44.51654" lon="6.79199">
        <ele>2184</ele>
        <time>2013-08-22T07:37:06.000Z</time>
      </trkpt>
      <trkpt lat="44.51638" lon="6.79223">
        <ele>2183</ele>
        <time>2013-08-22T07:37:19.000Z</time>
      </trkpt>
      <trkpt lat="44.51627" lon="6.7924">
        <ele>2182</ele>
        <time>2013-08-22T07:37:29.000Z</time>
      </trkpt>
      <trkpt lat="44.51622" lon="6.7925">
        <ele>2184</ele>
        <time>2013-08-22T07:37:40.000Z</time>
      </trkpt>
      <trkpt lat="44.5161" lon="6.7926">
        <ele>2187</ele>
        <time>2013-08-22T07:38:00.000Z</time>
      </trkpt>
      <trkpt lat="44.51605" lon="6.79265">
        <ele>2188</ele>
        <time>2013-08-22T07:38:28.000Z</time>
      </trkpt>
      <trkpt lat="44.51596" lon="6.7927">
        <ele>2189</ele>
        <time>2013-08-22T07:38:44.000Z</time>
      </trkpt>
      <trkpt lat="44.51589" lon="6.79276">
        <ele>2191</ele>
        <time>2013-08-22T07:38:57.000Z</time>
      </trkpt>
      <trkpt lat="44.5158" lon="6.79283">
        <ele>2193</ele>
        <time>2013-08-22T07:39:15.000Z</time>
      </trkpt>
      <trkpt lat="44.51575" lon="6.79283">
        <ele>2195</ele>
        <time>2013-08-22T07:39:27.000Z</time>
      </trkpt>
      <trkpt lat="44.51564" lon="6.79282">
        <ele>2198</ele>
        <time>2013-08-22T07:39:45.000Z</time>
      </trkpt>
      <trkpt lat="44.51553" lon="6.79279">
        <ele>2200</ele>
        <time>2013-08-22T07:40:03.000Z</time>
      </trkpt>
      <trkpt lat="44.51553" lon="6.79287">
        <ele>2202</ele>
        <time>2013-08-22T07:40:14.000Z</time>
      </trkpt>
      <trkpt lat="44.5155" lon="6.79295">
        <ele>2204</ele>
        <time>2013-08-22T07:40:28.000Z</time>
      </trkpt>
      <trkpt lat="44.51544" lon="6.79299">
        <ele>2206</ele>
        <time>2013-08-22T07:40:38.000Z</time>
      </trkpt>
      <trkpt lat="44.51536" lon="6.79303">
        <ele>2208</ele>
        <time>2013-08-22T07:40:53.000Z</time>
      </trkpt>
      <trkpt lat="44.51533" lon="6.79305">
        <ele>2209</ele>
        <time>2013-08-22T07:41:03.000Z</time>
      </trkpt>
      <trkpt lat="44.51519" lon="6.79314">
        <ele>2210</ele>
        <time>2013-08-22T07:41:51.000Z</time>
      </trkpt>
      <trkpt lat="44.51505" lon="6.79324">
        <ele>2213</ele>
        <time>2013-08-22T07:42:10.000Z</time>
      </trkpt>
      <trkpt lat="44.51494" lon="6.79332">
        <ele>2216</ele>
        <time>2013-08-22T07:42:26.000Z</time>
      </trkpt>
      <trkpt lat="44.51484" lon="6.79337">
        <ele>2218</ele>
        <time>2013-08-22T07:43:02.000Z</time>
      </trkpt>
      <trkpt lat="44.51468" lon="6.79342">
        <ele>2222</ele>
        <time>2013-08-22T07:43:23.000Z</time>
      </trkpt>
      <trkpt lat="44.51459" lon="6.79341">
        <ele>2223</ele>
        <time>2013-08-22T07:43:45.000Z</time>
      </trkpt>
      <trkpt lat="44.51439" lon="6.79343">
        <ele>2226</ele>
        <time>2013-08-22T07:44:05.000Z</time>
      </trkpt>
      <trkpt lat="44.51422" lon="6.79351">
        <ele>2229</ele>
        <time>2013-08-22T07:44:26.000Z</time>
      </trkpt>
      <trkpt lat="44.51406" lon="6.79362">
        <ele>2231</ele>
        <time>2013-08-22T07:44:42.000Z</time>
      </trkpt>
      <trkpt lat="44.51382" lon="6.79379">
        <ele>2231</ele>
        <time>2013-08-22T07:45:00.000Z</time>
      </trkpt>
      <trkpt lat="44.51369" lon="6.79384">
        <ele>2234</ele>
        <time>2013-08-22T07:45:14.000Z</time>
      </trkpt>
      <trkpt lat="44.51359" lon="6.79392">
        <ele>2235</ele>
        <time>2013-08-22T07:45:27.000Z</time>
      </trkpt>
      <trkpt lat="44.51351" lon="6.79403">
        <ele>2236</ele>
        <time>2013-08-22T07:45:41.000Z</time>
      </trkpt>
      <trkpt lat="44.51346" lon="6.79411">
        <ele>2236</ele>
        <time>2013-08-22T07:45:48.000Z</time>
      </trkpt>
      <trkpt lat="44.51322" lon="6.79424">
        <ele>2236</ele>
        <time>2013-08-22T07:46:03.000Z</time>
      </trkpt>
      <trkpt lat="44.51308" lon="6.79437">
        <ele>2237</ele>
        <time>2013-08-22T07:46:14.000Z</time>
      </trkpt>
      <trkpt lat="44.5129" lon="6.79451">
        <ele>2236</ele>
        <time>2013-08-22T07:46:28.000Z</time>
      </trkpt>
      <trkpt lat="44.51275" lon="6.7946">
        <ele>2237</ele>
        <time>2013-08-22T07:46:42.000Z</time>
      </trkpt>
      <trkpt lat="44.51257" lon="6.7947">
        <ele>2237</ele>
        <time>2013-08-22T07:46:56.000Z</time>
      </trkpt>
      <trkpt lat="44.51244" lon="6.79481">
        <ele>2239</ele>
        <time>2013-08-22T07:47:10.000Z</time>
      </trkpt>
      <trkpt lat="44.51236" lon="6.79486">
        <ele>2240</ele>
        <time>2013-08-22T07:47:23.000Z</time>
      </trkpt>
      <trkpt lat="44.51226" lon="6.79496">
        <ele>2242</ele>
        <time>2013-08-22T07:47:50.000Z</time>
      </trkpt>
      <trkpt lat="44.51221" lon="6.79507">
        <ele>2244</ele>
        <time>2013-08-22T07:48:02.000Z</time>
      </trkpt>
      <trkpt lat="44.51215" lon="6.79512">
        <ele>2246</ele>
        <time>2013-08-22T07:48:16.000Z</time>
      </trkpt>
      <trkpt lat="44.51207" lon="6.79515">
        <ele>2248</ele>
        <time>2013-08-22T07:48:48.000Z</time>
      </trkpt>
      <trkpt lat="44.51202" lon="6.79512">
        <ele>2249</ele>
        <time>2013-08-22T07:49:15.000Z</time>
      </trkpt>
      <trkpt lat="44.51195" lon="6.79514">
        <ele>2250</ele>
        <time>2013-08-22T07:49:46.000Z</time>
      </trkpt>
      <trkpt lat="44.51187" lon="6.79516">
        <ele>2253</ele>
        <time>2013-08-22T07:49:57.000Z</time>
      </trkpt>
      <trkpt lat="44.51183" lon="6.79517">
        <ele>2255</ele>
        <time>2013-08-22T07:50:08.000Z</time>
      </trkpt>
      <trkpt lat="44.5118" lon="6.79521">
        <ele>2256</ele>
        <time>2013-08-22T07:50:15.000Z</time>
      </trkpt>
      <trkpt lat="44.51176" lon="6.79525">
        <ele>2256</ele>
        <time>2013-08-22T07:51:30.000Z</time>
      </trkpt>
      <trkpt lat="44.51172" lon="6.79524">
        <ele>2257</ele>
        <time>2013-08-22T07:51:36.000Z</time>
      </trkpt>
      <trkpt lat="44.51175" lon="6.79529">
        <ele>2258</ele>
        <time>2013-08-22T07:51:44.000Z</time>
      </trkpt>
      <trkpt lat="44.51164" lon="6.79517">
        <ele>2258</ele>
        <time>2013-08-22T07:54:54.000Z</time>
      </trkpt>
      <trkpt lat="44.51158" lon="6.79513">
        <ele>2258</ele>
        <time>2013-08-22T07:55:03.000Z</time>
      </trkpt>
      <trkpt lat="44.51145" lon="6.79508">
        <ele>2260</ele>
        <time>2013-08-22T07:55:18.000Z</time>
      </trkpt>
      <trkpt lat="44.51137" lon="6.79508">
        <ele>2261</ele>
        <time>2013-08-22T07:55:30.000Z</time>
      </trkpt>
      <trkpt lat="44.51132" lon="6.79508">
        <ele>2262</ele>
        <time>2013-08-22T07:55:38.000Z</time>
      </trkpt>
      <trkpt lat="44.51122" lon="6.79505">
        <ele>2262</ele>
        <time>2013-08-22T07:55:55.000Z</time>
      </trkpt>
      <trkpt lat="44.51097" lon="6.79506">
        <ele>2263</ele>
        <time>2013-08-22T07:56:09.000Z</time>
      </trkpt>
      <trkpt lat="44.51078" lon="6.79503">
        <ele>2265</ele>
        <time>2013-08-22T07:56:19.000Z</time>
      </trkpt>
      <trkpt lat="44.51064" lon="6.79495">
        <ele>2267</ele>
        <time>2013-08-22T07:56:30.000Z</time>
      </trkpt>
      <trkpt lat="44.51051" lon="6.7949">
        <ele>2269</ele>
        <time>2013-08-22T07:56:44.000Z</time>
      </trkpt>
      <trkpt lat="44.51035" lon="6.79488">
        <ele>2271</ele>
        <time>2013-08-22T07:57:11.000Z</time>
      </trkpt>
      <trkpt lat="44.51024" lon="6.79492">
        <ele>2272</ele>
        <time>2013-08-22T07:58:39.000Z</time>
      </trkpt>
      <trkpt lat="44.50999" lon="6.79498">
        <ele>2273</ele>
        <time>2013-08-22T07:59:02.000Z</time>
      </trkpt>
      <trkpt lat="44.50976" lon="6.79497">
        <ele>2276</ele>
        <time>2013-08-22T07:59:17.000Z</time>
      </trkpt>
      <trkpt lat="44.50957" lon="6.79497">
        <ele>2277</ele>
        <time>2013-08-22T07:59:30.000Z</time>
      </trkpt>
      <trkpt lat="44.50937" lon="6.79487">
        <ele>2278</ele>
        <time>2013-08-22T07:59:44.000Z</time>
      </trkpt>
      <trkpt lat="44.50932" lon="6.79486">
        <ele>2278</ele>
        <time>2013-08-22T08:00:18.000Z</time>
      </trkpt>
      <trkpt lat="44.50906" lon="6.79483">
        <ele>2279</ele>
        <time>2013-08-22T08:00:38.000Z</time>
      </trkpt>
      <trkpt lat="44.50903" lon="6.79489">
        <ele>2279</ele>
        <time>2013-08-22T08:00:44.000Z</time>
      </trkpt>
      <trkpt lat="44.5088" lon="6.79494">
        <ele>2279</ele>
        <time>2013-08-22T08:01:15.000Z</time>
      </trkpt>
      <trkpt lat="44.50857" lon="6.7949">
        <ele>2280</ele>
        <time>2013-08-22T08:01:25.000Z</time>
      </trkpt>
      <trkpt lat="44.50831" lon="6.79484">
        <ele>2280</ele>
        <time>2013-08-22T08:01:37.000Z</time>
      </trkpt>
      <trkpt lat="44.50803" lon="6.79481">
        <ele>2281</ele>
        <time>2013-08-22T08:01:49.000Z</time>
      </trkpt>
      <trkpt lat="44.50774" lon="6.79471">
        <ele>2282</ele>
        <time>2013-08-22T08:02:02.000Z</time>
      </trkpt>
      <trkpt lat="44.50755" lon="6.79473">
        <ele>2282</ele>
        <time>2013-08-22T08:02:11.000Z</time>
      </trkpt>
      <trkpt lat="44.50739" lon="6.79476">
        <ele>2283</ele>
        <time>2013-08-22T08:02:20.000Z</time>
      </trkpt>
      <trkpt lat="44.50723" lon="6.79479">
        <ele>2283</ele>
        <time>2013-08-22T08:02:32.000Z</time>
      </trkpt>
      <trkpt lat="44.50725" lon="6.79471">
        <ele>2284</ele>
        <time>2013-08-22T08:02:41.000Z</time>
      </trkpt>
      <trkpt lat="44.50721" lon="6.79453">
        <ele>2287</ele>
        <time>2013-08-22T08:02:57.000Z</time>
      </trkpt>
      <trkpt lat="44.50718" lon="6.79446">
        <ele>2288</ele>
        <time>2013-08-22T08:03:06.000Z</time>
      </trkpt>
      <trkpt lat="44.50712" lon="6.79438">
        <ele>2288</ele>
        <time>2013-08-22T08:03:33.000Z</time>
      </trkpt>
      <trkpt lat="44.50711" lon="6.7944">
        <ele>2289</ele>
        <time>2013-08-22T08:12:46.000Z</time>
      </trkpt>
      <trkpt lat="44.50704" lon="6.79435">
        <ele>2290</ele>
        <time>2013-08-22T08:12:54.000Z</time>
      </trkpt>
      <trkpt lat="44.50701" lon="6.79434">
        <ele>2290</ele>
        <time>2013-08-22T08:13:01.000Z</time>
      </trkpt>
      <trkpt lat="44.50696" lon="6.79436">
        <ele>2291</ele>
        <time>2013-08-22T08:13:19.000Z</time>
      </trkpt>
      <trkpt lat="44.50685" lon="6.79434">
        <ele>2291</ele>
        <time>2013-08-22T08:13:38.000Z</time>
      </trkpt>
      <trkpt lat="44.50675" lon="6.79426">
        <ele>2294</ele>
        <time>2013-08-22T08:13:53.000Z</time>
      </trkpt>
      <trkpt lat="44.50675" lon="6.79418">
        <ele>2294</ele>
        <time>2013-08-22T08:14:01.000Z</time>
      </trkpt>
      <trkpt lat="44.50669" lon="6.79413">
        <ele>2296</ele>
        <time>2013-08-22T08:14:10.000Z</time>
      </trkpt>
      <trkpt lat="44.50659" lon="6.79415">
        <ele>2298</ele>
        <time>2013-08-22T08:14:22.000Z</time>
      </trkpt>
      <trkpt lat="44.50643" lon="6.79412">
        <ele>2299</ele>
        <time>2013-08-22T08:14:35.000Z</time>
      </trkpt>
      <trkpt lat="44.50616" lon="6.79407">
        <ele>2300</ele>
        <time>2013-08-22T08:14:47.000Z</time>
      </trkpt>
      <trkpt lat="44.50592" lon="6.79391">
        <ele>2299</ele>
        <time>2013-08-22T08:14:58.000Z</time>
      </trkpt>
      <trkpt lat="44.5058" lon="6.79383">
        <ele>2300</ele>
        <time>2013-08-22T08:15:05.000Z</time>
      </trkpt>
      <trkpt lat="44.50575" lon="6.79376">
        <ele>2302</ele>
        <time>2013-08-22T08:15:11.000Z</time>
      </trkpt>
      <trkpt lat="44.50571" lon="6.79364">
        <ele>2303</ele>
        <time>2013-08-22T08:15:30.000Z</time>
      </trkpt>
      <trkpt lat="44.50558" lon="6.79361">
        <ele>2306</ele>
        <time>2013-08-22T08:15:48.000Z</time>
      </trkpt>
      <trkpt lat="44.5055" lon="6.79357">
        <ele>2307</ele>
        <time>2013-08-22T08:15:58.000Z</time>
      </trkpt>
      <trkpt lat="44.50536" lon="6.79352">
        <ele>2308</ele>
        <time>2013-08-22T08:16:12.000Z</time>
      </trkpt>
      <trkpt lat="44.50521" lon="6.79363">
        <ele>2310</ele>
        <time>2013-08-22T08:16:27.000Z</time>
      </trkpt>
      <trkpt lat="44.50516" lon="6.7936">
        <ele>2310</ele>
        <time>2013-08-22T08:16:38.000Z</time>
      </trkpt>
      <trkpt lat="44.50513" lon="6.79348">
        <ele>2310</ele>
        <time>2013-08-22T08:16:52.000Z</time>
      </trkpt>
      <trkpt lat="44.50507" lon="6.79342">
        <ele>2312</ele>
        <time>2013-08-22T08:17:02.000Z</time>
      </trkpt>
      <trkpt lat="44.50498" lon="6.79329">
        <ele>2316</ele>
        <time>2013-08-22T08:17:22.000Z</time>
      </trkpt>
      <trkpt lat="44.50492" lon="6.79329">
        <ele>2317</ele>
        <time>2013-08-22T08:17:29.000Z</time>
      </trkpt>
      <trkpt lat="44.5048" lon="6.79322">
        <ele>2319</ele>
        <time>2013-08-22T08:17:45.000Z</time>
      </trkpt>
      <trkpt lat="44.50478" lon="6.79322">
        <ele>2320</ele>
        <time>2013-08-22T08:17:53.000Z</time>
      </trkpt>
      <trkpt lat="44.50462" lon="6.79314">
        <ele>2321</ele>
        <time>2013-08-22T08:18:06.000Z</time>
      </trkpt>
      <trkpt lat="44.50445" lon="6.79306">
        <ele>2323</ele>
        <time>2013-08-22T08:18:18.000Z</time>
      </trkpt>
      <trkpt lat="44.50432" lon="6.79301">
        <ele>2326</ele>
        <time>2013-08-22T08:18:30.000Z</time>
      </trkpt>
      <trkpt lat="44.50419" lon="6.79298">
        <ele>2327</ele>
        <time>2013-08-22T08:18:46.000Z</time>
      </trkpt>
      <trkpt lat="44.50412" lon="6.79297">
        <ele>2329</ele>
        <time>2013-08-22T08:18:57.000Z</time>
      </trkpt>
      <trkpt lat="44.50401" lon="6.79302">
        <ele>2331</ele>
        <time>2013-08-22T08:19:14.000Z</time>
      </trkpt>
      <trkpt lat="44.50391" lon="6.7931">
        <ele>2333</ele>
        <time>2013-08-22T08:19:30.000Z</time>
      </trkpt>
      <trkpt lat="44.50385" lon="6.79312">
        <ele>2335</ele>
        <time>2013-08-22T08:19:41.000Z</time>
      </trkpt>
      <trkpt lat="44.50371" lon="6.79305">
        <ele>2337</ele>
        <time>2013-08-22T08:20:00.000Z</time>
      </trkpt>
      <trkpt lat="44.50369" lon="6.79293">
        <ele>2340</ele>
        <time>2013-08-22T08:20:15.000Z</time>
      </trkpt>
      <trkpt lat="44.50361" lon="6.79274">
        <ele>2343</ele>
        <time>2013-08-22T08:20:35.000Z</time>
      </trkpt>
      <trkpt lat="44.50355" lon="6.79271">
        <ele>2345</ele>
        <time>2013-08-22T08:20:46.000Z</time>
      </trkpt>
      <trkpt lat="44.50345" lon="6.79274">
        <ele>2346</ele>
        <time>2013-08-22T08:20:59.000Z</time>
      </trkpt>
      <trkpt lat="44.50338" lon="6.79273">
        <ele>2348</ele>
        <time>2013-08-22T08:21:09.000Z</time>
      </trkpt>
      <trkpt lat="44.5033" lon="6.79259">
        <ele>2350</ele>
        <time>2013-08-22T08:21:27.000Z</time>
      </trkpt>
      <trkpt lat="44.50323" lon="6.79243">
        <ele>2353</ele>
        <time>2013-08-22T08:21:46.000Z</time>
      </trkpt>
      <trkpt lat="44.50317" lon="6.79248">
        <ele>2354</ele>
        <time>2013-08-22T08:21:58.000Z</time>
      </trkpt>
      <trkpt lat="44.50313" lon="6.79263">
        <ele>2356</ele>
        <time>2013-08-22T08:22:14.000Z</time>
      </trkpt>
      <trkpt lat="44.50306" lon="6.79264">
        <ele>2359</ele>
        <time>2013-08-22T08:22:33.000Z</time>
      </trkpt>
      <trkpt lat="44.50304" lon="6.79258">
        <ele>2360</ele>
        <time>2013-08-22T08:22:41.000Z</time>
      </trkpt>
      <trkpt lat="44.50299" lon="6.79258">
        <ele>2363</ele>
        <time>2013-08-22T08:23:00.000Z</time>
      </trkpt>
      <trkpt lat="44.50294" lon="6.79246">
        <ele>2364</ele>
        <time>2013-08-22T08:23:12.000Z</time>
      </trkpt>
      <trkpt lat="44.50284" lon="6.79235">
        <ele>2366</ele>
        <time>2013-08-22T08:23:30.000Z</time>
      </trkpt>
      <trkpt lat="44.50274" lon="6.79231">
        <ele>2368</ele>
        <time>2013-08-22T08:23:49.000Z</time>
      </trkpt>
      <trkpt lat="44.50265" lon="6.79225">
        <ele>2371</ele>
        <time>2013-08-22T08:24:06.000Z</time>
      </trkpt>
      <trkpt lat="44.50261" lon="6.79225">
        <ele>2373</ele>
        <time>2013-08-22T08:24:18.000Z</time>
      </trkpt>
      <trkpt lat="44.5026" lon="6.79228">
        <ele>2374</ele>
        <time>2013-08-22T08:24:27.000Z</time>
      </trkpt>
      <trkpt lat="44.5026" lon="6.79231">
        <ele>2375</ele>
        <time>2013-08-22T08:24:35.000Z</time>
      </trkpt>
      <trkpt lat="44.50252" lon="6.79241">
        <ele>2380</ele>
        <time>2013-08-22T08:25:00.000Z</time>
      </trkpt>
      <trkpt lat="44.5024" lon="6.79247">
        <ele>2382</ele>
        <time>2013-08-22T08:25:12.000Z</time>
      </trkpt>
      <trkpt lat="44.50235" lon="6.7925">
        <ele>2385</ele>
        <time>2013-08-22T08:25:25.000Z</time>
      </trkpt>
      <trkpt lat="44.5023" lon="6.79254">
        <ele>2387</ele>
        <time>2013-08-22T08:25:40.000Z</time>
      </trkpt>
      <trkpt lat="44.50225" lon="6.79258">
        <ele>2391</ele>
        <time>2013-08-22T08:25:58.000Z</time>
      </trkpt>
      <trkpt lat="44.50214" lon="6.79266">
        <ele>2394</ele>
        <time>2013-08-22T08:26:17.000Z</time>
      </trkpt>
      <trkpt lat="44.50204" lon="6.79274">
        <ele>2397</ele>
        <time>2013-08-22T08:26:32.000Z</time>
      </trkpt>
      <trkpt lat="44.50198" lon="6.7928">
        <ele>2399</ele>
        <time>2013-08-22T08:26:45.000Z</time>
      </trkpt>
      <trkpt lat="44.50193" lon="6.79285">
        <ele>2401</ele>
        <time>2013-08-22T08:26:59.000Z</time>
      </trkpt>
      <trkpt lat="44.50188" lon="6.79291">
        <ele>2403</ele>
        <time>2013-08-22T08:27:12.000Z</time>
      </trkpt>
      <trkpt lat="44.50182" lon="6.79292">
        <ele>2405</ele>
        <time>2013-08-22T08:27:31.000Z</time>
      </trkpt>
      <trkpt lat="44.50171" lon="6.79297">
        <ele>2407</ele>
        <time>2013-08-22T08:27:51.000Z</time>
      </trkpt>
      <trkpt lat="44.50158" lon="6.79302">
        <ele>2410</ele>
        <time>2013-08-22T08:28:15.000Z</time>
      </trkpt>
      <trkpt lat="44.50154" lon="6.79308">
        <ele>2413</ele>
        <time>2013-08-22T08:28:30.000Z</time>
      </trkpt>
      <trkpt lat="44.50151" lon="6.79311">
        <ele>2414</ele>
        <time>2013-08-22T08:28:42.000Z</time>
      </trkpt>
      <trkpt lat="44.50146" lon="6.79315">
        <ele>2416</ele>
        <time>2013-08-22T08:28:56.000Z</time>
      </trkpt>
      <trkpt lat="44.50141" lon="6.79317">
        <ele>2418</ele>
        <time>2013-08-22T08:29:07.000Z</time>
      </trkpt>
      <trkpt lat="44.5014" lon="6.79321">
        <ele>2420</ele>
        <time>2013-08-22T08:29:17.000Z</time>
      </trkpt>
      <trkpt lat="44.50135" lon="6.79322">
        <ele>2422</ele>
        <time>2013-08-22T08:29:30.000Z</time>
      </trkpt>
      <trkpt lat="44.50131" lon="6.79323">
        <ele>2423</ele>
        <time>2013-08-22T08:29:41.000Z</time>
      </trkpt>
      <trkpt lat="44.50126" lon="6.79324">
        <ele>2425</ele>
        <time>2013-08-22T08:29:51.000Z</time>
      </trkpt>
      <trkpt lat="44.50124" lon="6.79329">
        <ele>2427</ele>
        <time>2013-08-22T08:30:02.000Z</time>
      </trkpt>
      <trkpt lat="44.50126" lon="6.79337">
        <ele>2429</ele>
        <time>2013-08-22T08:42:31.000Z</time>
      </trkpt>
      <trkpt lat="44.50112" lon="6.79342">
        <ele>2426</ele>
        <time>2013-08-22T08:42:39.000Z</time>
      </trkpt>
      <trkpt lat="44.50096" lon="6.79342">
        <ele>2423</ele>
        <time>2013-08-22T08:42:48.000Z</time>
      </trkpt>
      <trkpt lat="44.50067" lon="6.79337">
        <ele>2420</ele>
        <time>2013-08-22T08:43:11.000Z</time>
      </trkpt>
      <trkpt lat="44.50055" lon="6.79317">
        <ele>2417</ele>
        <time>2013-08-22T08:43:19.000Z</time>
      </trkpt>
      <trkpt lat="44.5005" lon="6.79323">
        <ele>2415</ele>
        <time>2013-08-22T08:43:29.000Z</time>
      </trkpt>
      <trkpt lat="44.50047" lon="6.79333">
        <ele>2414</ele>
        <time>2013-08-22T08:43:37.000Z</time>
      </trkpt>
      <trkpt lat="44.50034" lon="6.7933">
        <ele>2412</ele>
        <time>2013-08-22T08:44:39.000Z</time>
      </trkpt>
      <trkpt lat="44.50031" lon="6.79287">
        <ele>2406</ele>
        <time>2013-08-22T08:44:48.000Z</time>
      </trkpt>
      <trkpt lat="44.50025" lon="6.79276">
        <ele>2404</ele>
        <time>2013-08-22T08:44:51.000Z</time>
      </trkpt>
      <trkpt lat="44.50002" lon="6.79255">
        <ele>2395</ele>
        <time>2013-08-22T08:44:59.000Z</time>
      </trkpt>
      <trkpt lat="44.49967" lon="6.79272">
        <ele>2389</ele>
        <time>2013-08-22T08:45:06.000Z</time>
      </trkpt>
      <trkpt lat="44.49949" lon="6.7929">
        <ele>2380</ele>
        <time>2013-08-22T08:45:14.000Z</time>
      </trkpt>
      <trkpt lat="44.49941" lon="6.79294">
        <ele>2378</ele>
        <time>2013-08-22T08:45:18.000Z</time>
      </trkpt>
      <trkpt lat="44.49936" lon="6.79315">
        <ele>2373</ele>
        <time>2013-08-22T08:45:24.000Z</time>
      </trkpt>
      <trkpt lat="44.49917" lon="6.79333">
        <ele>2365</ele>
        <time>2013-08-22T08:45:32.000Z</time>
      </trkpt>
      <trkpt lat="44.49914" lon="6.79355">
        <ele>2359</ele>
        <time>2013-08-22T08:45:39.000Z</time>
      </trkpt>
      <trkpt lat="44.499" lon="6.79369">
        <ele>2355</ele>
        <time>2013-08-22T08:45:44.000Z</time>
      </trkpt>
      <trkpt lat="44.49889" lon="6.79387">
        <ele>2347</ele>
        <time>2013-08-22T08:45:51.000Z</time>
      </trkpt>
      <trkpt lat="44.49868" lon="6.79401">
        <ele>2337</ele>
        <time>2013-08-22T08:46:01.000Z</time>
      </trkpt>
      <trkpt lat="44.49866" lon="6.79411">
        <ele>2334</ele>
        <time>2013-08-22T08:46:05.000Z</time>
      </trkpt>
      <trkpt lat="44.49849" lon="6.79411">
        <ele>2329</ele>
        <time>2013-08-22T08:46:12.000Z</time>
      </trkpt>
      <trkpt lat="44.49816" lon="6.79441">
        <ele>2320</ele>
        <time>2013-08-22T08:46:20.000Z</time>
      </trkpt>
      <trkpt lat="44.49788" lon="6.7947">
        <ele>2310</ele>
        <time>2013-08-22T08:46:27.000Z</time>
      </trkpt>
      <trkpt lat="44.49776" lon="6.79491">
        <ele>2303</ele>
        <time>2013-08-22T08:46:32.000Z</time>
      </trkpt>
      <trkpt lat="44.49746" lon="6.79484">
        <ele>2294</ele>
        <time>2013-08-22T08:46:40.000Z</time>
      </trkpt>
      <trkpt lat="44.49726" lon="6.79498">
        <ele>2290</ele>
        <time>2013-08-22T08:46:44.000Z</time>
      </trkpt>
      <trkpt lat="44.49729" lon="6.795">
        <ele>2285</ele>
        <time>2013-08-22T08:50:29.000Z</time>
      </trkpt>
      <trkpt lat="44.49739" lon="6.79506">
        <ele>2284</ele>
        <time>2013-08-22T08:50:37.000Z</time>
      </trkpt>
      <trkpt lat="44.4974" lon="6.7951">
        <ele>2281</ele>
        <time>2013-08-22T08:50:45.000Z</time>
      </trkpt>
      <trkpt lat="44.4975" lon="6.7951">
        <ele>2279</ele>
        <time>2013-08-22T08:50:54.000Z</time>
      </trkpt>
      <trkpt lat="44.49749" lon="6.7952">
        <ele>2275</ele>
        <time>2013-08-22T08:51:02.000Z</time>
      </trkpt>
      <trkpt lat="44.49754" lon="6.79557">
        <ele>2270</ele>
        <time>2013-08-22T08:51:12.000Z</time>
      </trkpt>
      <trkpt lat="44.49759" lon="6.79565">
        <ele>2265</ele>
        <time>2013-08-22T08:51:18.000Z</time>
      </trkpt>
      <trkpt lat="44.4977" lon="6.79569">
        <ele>2263</ele>
        <time>2013-08-22T08:52:05.000Z</time>
      </trkpt>
      <trkpt lat="44.49778" lon="6.79579">
        <ele>2259</ele>
        <time>2013-08-22T08:52:17.000Z</time>
      </trkpt>
      <trkpt lat="44.49779" lon="6.79588">
        <ele>2257</ele>
        <time>2013-08-22T08:52:23.000Z</time>
      </trkpt>
      <trkpt lat="44.49786" lon="6.79601">
        <ele>2255</ele>
        <time>2013-08-22T08:52:28.000Z</time>
      </trkpt>
      <trkpt lat="44.49779" lon="6.79614">
        <ele>2251</ele>
        <time>2013-08-22T08:52:34.000Z</time>
      </trkpt>
      <trkpt lat="44.49744" lon="6.79649">
        <ele>2245</ele>
        <time>2013-08-22T08:52:44.000Z</time>
      </trkpt>
      <trkpt lat="44.49727" lon="6.79669">
        <ele>2242</ele>
        <time>2013-08-22T08:52:50.000Z</time>
      </trkpt>
      <trkpt lat="44.49697" lon="6.797">
        <ele>2237</ele>
        <time>2013-08-22T08:52:58.000Z</time>
      </trkpt>
      <trkpt lat="44.49681" lon="6.79731">
        <ele>2231</ele>
        <time>2013-08-22T08:53:04.000Z</time>
      </trkpt>
      <trkpt lat="44.49656" lon="6.7975">
        <ele>2221</ele>
        <time>2013-08-22T08:53:12.000Z</time>
      </trkpt>
      <trkpt lat="44.49641" lon="6.79766">
        <ele>2215</ele>
        <time>2013-08-22T08:53:18.000Z</time>
      </trkpt>
      <trkpt lat="44.49639" lon="6.79758">
        <ele>2211</ele>
        <time>2013-08-22T08:53:23.000Z</time>
      </trkpt>
      <trkpt lat="44.49635" lon="6.79756">
        <ele>2208</ele>
        <time>2013-08-22T08:53:29.000Z</time>
      </trkpt>
      <trkpt lat="44.49616" lon="6.79787">
        <ele>2204</ele>
        <time>2013-08-22T08:53:36.000Z</time>
      </trkpt>
      <trkpt lat="44.49585" lon="6.79828">
        <ele>2194</ele>
        <time>2013-08-22T08:53:45.000Z</time>
      </trkpt>
      <trkpt lat="44.49568" lon="6.79868">
        <ele>2184</ele>
        <time>2013-08-22T08:53:54.000Z</time>
      </trkpt>
      <trkpt lat="44.49573" lon="6.79897">
        <ele>2178</ele>
        <time>2013-08-22T08:54:02.000Z</time>
      </trkpt>
      <trkpt lat="44.49578" lon="6.79917">
        <ele>2175</ele>
        <time>2013-08-22T08:54:07.000Z</time>
      </trkpt>
      <trkpt lat="44.49592" lon="6.79941">
        <ele>2171</ele>
        <time>2013-08-22T08:54:13.000Z</time>
      </trkpt>
      <trkpt lat="44.49589" lon="6.79954">
        <ele>2170</ele>
        <time>2013-08-22T08:54:18.000Z</time>
      </trkpt>
      <trkpt lat="44.49565" lon="6.79964">
        <ele>2172</ele>
        <time>2013-08-22T08:54:29.000Z</time>
      </trkpt>
      <trkpt lat="44.49546" lon="6.79985">
        <ele>2174</ele>
        <time>2013-08-22T08:54:42.000Z</time>
      </trkpt>
      <trkpt lat="44.49544" lon="6.79992">
        <ele>2174</ele>
        <time>2013-08-22T08:54:48.000Z</time>
      </trkpt>
      <trkpt lat="44.49545" lon="6.8002">
        <ele>2173</ele>
        <time>2013-08-22T08:55:36.000Z</time>
      </trkpt>
      <trkpt lat="44.49528" lon="6.80051">
        <ele>2172</ele>
        <time>2013-08-22T08:55:45.000Z</time>
      </trkpt>
      <trkpt lat="44.49497" lon="6.80109">
        <ele>2167</ele>
        <time>2013-08-22T08:55:56.000Z</time>
      </trkpt>
      <trkpt lat="44.49488" lon="6.80141">
        <ele>2162</ele>
        <time>2013-08-22T08:56:01.000Z</time>
      </trkpt>
      <trkpt lat="44.49458" lon="6.80175">
        <ele>2154</ele>
        <time>2013-08-22T08:56:09.000Z</time>
      </trkpt>
      <trkpt lat="44.49421" lon="6.80188">
        <ele>2147</ele>
        <time>2013-08-22T08:56:15.000Z</time>
      </trkpt>
      <trkpt lat="44.49387" lon="6.80185">
        <ele>2137</ele>
        <time>2013-08-22T08:56:22.000Z</time>
      </trkpt>
      <trkpt lat="44.49362" lon="6.80177">
        <ele>2130</ele>
        <time>2013-08-22T08:56:29.000Z</time>
      </trkpt>
      <trkpt lat="44.49345" lon="6.80206">
        <ele>2124</ele>
        <time>2013-08-22T08:56:37.000Z</time>
      </trkpt>
      <trkpt lat="44.49341" lon="6.80244">
        <ele>2119</ele>
        <time>2013-08-22T08:56:43.000Z</time>
      </trkpt>
      <trkpt lat="44.4935" lon="6.80287">
        <ele>2113</ele>
        <time>2013-08-22T08:56:49.000Z</time>
      </trkpt>
      <trkpt lat="44.49342" lon="6.80314">
        <ele>2107</ele>
        <time>2013-08-22T08:56:54.000Z</time>
      </trkpt>
      <trkpt lat="44.4933" lon="6.80308">
        <ele>2101</ele>
        <time>2013-08-22T08:57:03.000Z</time>
      </trkpt>
      <trkpt lat="44.49312" lon="6.80303">
        <ele>2096</ele>
        <time>2013-08-22T08:57:11.000Z</time>
      </trkpt>
      <trkpt lat="44.49285" lon="6.80291">
        <ele>2090</ele>
        <time>2013-08-22T08:57:18.000Z</time>
      </trkpt>
      <trkpt lat="44.49267" lon="6.80284">
        <ele>2085</ele>
        <time>2013-08-22T08:57:25.000Z</time>
      </trkpt>
      <trkpt lat="44.49252" lon="6.80298">
        <ele>2083</ele>
        <time>2013-08-22T08:57:50.000Z</time>
      </trkpt>
      <trkpt lat="44.49225" lon="6.80332">
        <ele>2081</ele>
        <time>2013-08-22T08:57:59.000Z</time>
      </trkpt>
      <trkpt lat="44.49232" lon="6.80335">
        <ele>2079</ele>
        <time>2013-08-22T08:58:07.000Z</time>
      </trkpt>
      <trkpt lat="44.49248" lon="6.8034">
        <ele>2078</ele>
        <time>2013-08-22T08:58:25.000Z</time>
      </trkpt>
      <trkpt lat="44.49234" lon="6.8034">
        <ele>2077</ele>
        <time>2013-08-22T08:59:03.000Z</time>
      </trkpt>
      <trkpt lat="44.49205" lon="6.80351">
        <ele>2077</ele>
        <time>2013-08-22T08:59:12.000Z</time>
      </trkpt>
      <trkpt lat="44.49162" lon="6.80354">
        <ele>2075</ele>
        <time>2013-08-22T08:59:20.000Z</time>
      </trkpt>
      <trkpt lat="44.49128" lon="6.80359">
        <ele>2070</ele>
        <time>2013-08-22T08:59:27.000Z</time>
      </trkpt>
      <trkpt lat="44.49104" lon="6.80343">
        <ele>2063</ele>
        <time>2013-08-22T08:59:33.000Z</time>
      </trkpt>
      <trkpt lat="44.4908" lon="6.80312">
        <ele>2055</ele>
        <time>2013-08-22T08:59:42.000Z</time>
      </trkpt>
      <trkpt lat="44.49061" lon="6.80293">
        <ele>2048</ele>
        <time>2013-08-22T08:59:50.000Z</time>
      </trkpt>
      <trkpt lat="44.49038" lon="6.80295">
        <ele>2044</ele>
        <time>2013-08-22T08:59:56.000Z</time>
      </trkpt>
      <trkpt lat="44.4903" lon="6.80301">
        <ele>2043</ele>
        <time>2013-08-22T08:59:59.000Z</time>
      </trkpt>
      <trkpt lat="44.49014" lon="6.80328">
        <ele>2038</ele>
        <time>2013-08-22T09:00:06.000Z</time>
      </trkpt>
      <trkpt lat="44.48981" lon="6.80328">
        <ele>2032</ele>
        <time>2013-08-22T09:00:13.000Z</time>
      </trkpt>
      <trkpt lat="44.48936" lon="6.80305">
        <ele>2020</ele>
        <time>2013-08-22T09:00:23.000Z</time>
      </trkpt>
      <trkpt lat="44.48917" lon="6.803">
        <ele>2015</ele>
        <time>2013-08-22T09:00:27.000Z</time>
      </trkpt>
      <trkpt lat="44.48884" lon="6.8029">
        <ele>2005</ele>
        <time>2013-08-22T09:00:36.000Z</time>
      </trkpt>
      <trkpt lat="44.48854" lon="6.80291">
        <ele>1997</ele>
        <time>2013-08-22T09:00:44.000Z</time>
      </trkpt>
      <trkpt lat="44.48837" lon="6.80292">
        <ele>1993</ele>
        <time>2013-08-22T09:00:50.000Z</time>
      </trkpt>
      <trkpt lat="44.48821" lon="6.80276">
        <ele>1989</ele>
        <time>2013-08-22T09:00:55.000Z</time>
      </trkpt>
      <trkpt lat="44.48819" lon="6.80249">
        <ele>1985</ele>
        <time>2013-08-22T09:01:02.000Z</time>
      </trkpt>
      <trkpt lat="44.48798" lon="6.80233">
        <ele>1981</ele>
        <time>2013-08-22T09:01:09.000Z</time>
      </trkpt>
      <trkpt lat="44.48781" lon="6.80222">
        <ele>1976</ele>
        <time>2013-08-22T09:01:15.000Z</time>
      </trkpt>
      <trkpt lat="44.48762" lon="6.80214">
        <ele>1969</ele>
        <time>2013-08-22T09:01:22.000Z</time>
      </trkpt>
      <trkpt lat="44.48752" lon="6.80236">
        <ele>1963</ele>
        <time>2013-08-22T09:01:28.000Z</time>
      </trkpt>
      <trkpt lat="44.48743" lon="6.80234">
        <ele>1958</ele>
        <time>2013-08-22T09:01:35.000Z</time>
      </trkpt>
      <trkpt lat="44.48734" lon="6.80233">
        <ele>1954</ele>
        <time>2013-08-22T09:02:45.000Z</time>
      </trkpt>
      <trkpt lat="44.48714" lon="6.8024">
        <ele>1952</ele>
        <time>2013-08-22T09:02:50.000Z</time>
      </trkpt>
      <trkpt lat="44.48698" lon="6.80267">
        <ele>1946</ele>
        <time>2013-08-22T09:02:57.000Z</time>
      </trkpt>
      <trkpt lat="44.48714" lon="6.80295">
        <ele>1936</ele>
        <time>2013-08-22T09:03:06.000Z</time>
      </trkpt>
      <trkpt lat="44.48717" lon="6.80311">
        <ele>1932</ele>
        <time>2013-08-22T09:03:10.000Z</time>
      </trkpt>
      <trkpt lat="44.48725" lon="6.80359">
        <ele>1922</ele>
        <time>2013-08-22T09:03:18.000Z</time>
      </trkpt>
      <trkpt lat="44.48728" lon="6.8038">
        <ele>1920</ele>
        <time>2013-08-22T09:03:22.000Z</time>
      </trkpt>
      <trkpt lat="44.48717" lon="6.80404">
        <ele>1916</ele>
        <time>2013-08-22T09:03:28.000Z</time>
      </trkpt>
      <trkpt lat="44.48696" lon="6.80402">
        <ele>1909</ele>
        <time>2013-08-22T09:03:35.000Z</time>
      </trkpt>
      <trkpt lat="44.48676" lon="6.80403">
        <ele>1900</ele>
        <time>2013-08-22T09:03:43.000Z</time>
      </trkpt>
      <trkpt lat="44.48646" lon="6.80423">
        <ele>1891</ele>
        <time>2013-08-22T09:03:52.000Z</time>
      </trkpt>
      <trkpt lat="44.48624" lon="6.80438">
        <ele>1880</ele>
        <time>2013-08-22T09:03:59.000Z</time>
      </trkpt>
      <trkpt lat="44.48604" lon="6.80452">
        <ele>1871</ele>
        <time>2013-08-22T09:04:05.000Z</time>
      </trkpt>
      <trkpt lat="44.48564" lon="6.8046">
        <ele>1865</ele>
        <time>2013-08-22T09:04:12.000Z</time>
      </trkpt>
      <trkpt lat="44.48545" lon="6.80475">
        <ele>1862</ele>
        <time>2013-08-22T09:04:19.000Z</time>
      </trkpt>
      <trkpt lat="44.48544" lon="6.80483">
        <ele>1861</ele>
        <time>2013-08-22T09:05:12.000Z</time>
      </trkpt>
      <trkpt lat="44.48538" lon="6.80499">
        <ele>1859</ele>
        <time>2013-08-22T09:05:17.000Z</time>
      </trkpt>
      <trkpt lat="44.48523" lon="6.80529">
        <ele>1855</ele>
        <time>2013-08-22T09:05:23.000Z</time>
      </trkpt>
      <trkpt lat="44.48514" lon="6.80545">
        <ele>1849</ele>
        <time>2013-08-22T09:05:29.000Z</time>
      </trkpt>
      <trkpt lat="44.48515" lon="6.80547">
        <ele>1845</ele>
        <time>2013-08-22T09:05:34.000Z</time>
      </trkpt>
      <trkpt lat="44.48517" lon="6.8054">
        <ele>1844</ele>
        <time>2013-08-22T09:06:53.000Z</time>
      </trkpt>
      <trkpt lat="44.48503" lon="6.8056">
        <ele>1842</ele>
        <time>2013-08-22T09:07:03.000Z</time>
      </trkpt>
      <trkpt lat="44.48497" lon="6.80578">
        <ele>1839</ele>
        <time>2013-08-22T09:07:09.000Z</time>
      </trkpt>
      <trkpt lat="44.48479" lon="6.80597">
        <ele>1835</ele>
        <time>2013-08-22T09:07:14.000Z</time>
      </trkpt>
      <trkpt lat="44.48451" lon="6.80634">
        <ele>1823</ele>
        <time>2013-08-22T09:07:24.000Z</time>
      </trkpt>
      <trkpt lat="44.48416" lon="6.80641">
        <ele>1817</ele>
        <time>2013-08-22T09:07:31.000Z</time>
      </trkpt>
      <trkpt lat="44.48402" lon="6.80647">
        <ele>1811</ele>
        <time>2013-08-22T09:07:38.000Z</time>
      </trkpt>
      <trkpt lat="44.48404" lon="6.80652">
        <ele>1807</ele>
        <time>2013-08-22T09:11:14.000Z</time>
      </trkpt>
      <trkpt lat="44.48395" lon="6.80662">
        <ele>1806</ele>
        <time>2013-08-22T09:11:45.000Z</time>
      </trkpt>
      <trkpt lat="44.48395" lon="6.80669">
        <ele>1806</ele>
        <time>2013-08-22T09:11:50.000Z</time>
      </trkpt>
      <trkpt lat="44.48394" lon="6.8065">
        <ele>1805</ele>
        <time>2013-08-22T09:12:03.000Z</time>
      </trkpt>
      <trkpt lat="44.48389" lon="6.80657">
        <ele>1805</ele>
        <time>2013-08-22T09:12:43.000Z</time>
      </trkpt>
      <trkpt lat="44.48397" lon="6.80655">
        <ele>1804</ele>
        <time>2013-08-22T09:13:49.000Z</time>
      </trkpt>
      <trkpt lat="44.48388" lon="6.80684">
        <ele>1805</ele>
        <time>2013-08-22T09:15:03.000Z</time>
      </trkpt>
      <trkpt lat="44.48385" lon="6.80703">
        <ele>1806</ele>
        <time>2013-08-22T09:15:12.000Z</time>
      </trkpt>
      <trkpt lat="44.48382" lon="6.80734">
        <ele>1808</ele>
        <time>2013-08-22T09:15:27.000Z</time>
      </trkpt>
      <trkpt lat="44.48376" lon="6.80765">
        <ele>1809</ele>
        <time>2013-08-22T09:15:42.000Z</time>
      </trkpt>
      <trkpt lat="44.48364" lon="6.80802">
        <ele>1812</ele>
        <time>2013-08-22T09:16:00.000Z</time>
      </trkpt>
      <trkpt lat="44.48352" lon="6.80832">
        <ele>1813</ele>
        <time>2013-08-22T09:16:16.000Z</time>
      </trkpt>
      <trkpt lat="44.48341" lon="6.80856">
        <ele>1815</ele>
        <time>2013-08-22T09:16:30.000Z</time>
      </trkpt>
      <trkpt lat="44.48342" lon="6.80887">
        <ele>1817</ele>
        <time>2013-08-22T09:16:45.000Z</time>
      </trkpt>
      <trkpt lat="44.48341" lon="6.80916">
        <ele>1819</ele>
        <time>2013-08-22T09:16:58.000Z</time>
      </trkpt>
      <trkpt lat="44.4834" lon="6.80933">
        <ele>1821</ele>
        <time>2013-08-22T09:17:06.000Z</time>
      </trkpt>
      <trkpt lat="44.48343" lon="6.80964">
        <ele>1824</ele>
        <time>2013-08-22T09:17:22.000Z</time>
      </trkpt>
      <trkpt lat="44.4835" lon="6.80988">
        <ele>1825</ele>
        <time>2013-08-22T09:17:34.000Z</time>
      </trkpt>
      <trkpt lat="44.48358" lon="6.81022">
        <ele>1828</ele>
        <time>2013-08-22T09:17:53.000Z</time>
      </trkpt>
      <trkpt lat="44.48358" lon="6.81063">
        <ele>1830</ele>
        <time>2013-08-22T09:18:09.000Z</time>
      </trkpt>
      <trkpt lat="44.48358" lon="6.81104">
        <ele>1830</ele>
        <time>2013-08-22T09:18:17.000Z</time>
      </trkpt>
      <trkpt lat="44.48338" lon="6.8115">
        <ele>1833</ele>
        <time>2013-08-22T09:18:34.000Z</time>
      </trkpt>
      <trkpt lat="44.48311" lon="6.81179">
        <ele>1835</ele>
        <time>2013-08-22T09:18:51.000Z</time>
      </trkpt>
      <trkpt lat="44.48286" lon="6.81199">
        <ele>1837</ele>
        <time>2013-08-22T09:19:04.000Z</time>
      </trkpt>
      <trkpt lat="44.48257" lon="6.81224">
        <ele>1839</ele>
        <time>2013-08-22T09:19:21.000Z</time>
      </trkpt>
      <trkpt lat="44.4823" lon="6.81246">
        <ele>1840</ele>
        <time>2013-08-22T09:19:36.000Z</time>
      </trkpt>
      <trkpt lat="44.48194" lon="6.81255">
        <ele>1842</ele>
        <time>2013-08-22T09:19:52.000Z</time>
      </trkpt>
      <trkpt lat="44.48167" lon="6.81256">
        <ele>1843</ele>
        <time>2013-08-22T09:20:04.000Z</time>
      </trkpt>
      <trkpt lat="44.48147" lon="6.81255">
        <ele>1845</ele>
        <time>2013-08-22T09:20:18.000Z</time>
      </trkpt>
      <trkpt lat="44.48124" lon="6.81257">
        <ele>1848</ele>
        <time>2013-08-22T09:20:33.000Z</time>
      </trkpt>
      <trkpt lat="44.48104" lon="6.81275">
        <ele>1850</ele>
        <time>2013-08-22T09:20:48.000Z</time>
      </trkpt>
      <trkpt lat="44.48084" lon="6.81307">
        <ele>1852</ele>
        <time>2013-08-22T09:21:04.000Z</time>
      </trkpt>
      <trkpt lat="44.48066" lon="6.81342">
        <ele>1854</ele>
        <time>2013-08-22T09:21:22.000Z</time>
      </trkpt>
      <trkpt lat="44.48049" lon="6.8136">
        <ele>1856</ele>
        <time>2013-08-22T09:21:37.000Z</time>
      </trkpt>
      <trkpt lat="44.48022" lon="6.81366">
        <ele>1859</ele>
        <time>2013-08-22T09:21:55.000Z</time>
      </trkpt>
      <trkpt lat="44.48007" lon="6.81391">
        <ele>1862</ele>
        <time>2013-08-22T09:22:11.000Z</time>
      </trkpt>
      <trkpt lat="44.47988" lon="6.81419">
        <ele>1866</ele>
        <time>2013-08-22T09:22:29.000Z</time>
      </trkpt>
      <trkpt lat="44.47979" lon="6.8142">
        <ele>1867</ele>
        <time>2013-08-22T09:22:35.000Z</time>
      </trkpt>
      <trkpt lat="44.47955" lon="6.81451">
        <ele>1871</ele>
        <time>2013-08-22T09:22:55.000Z</time>
      </trkpt>
      <trkpt lat="44.47931" lon="6.81481">
        <ele>1874</ele>
        <time>2013-08-22T09:23:13.000Z</time>
      </trkpt>
      <trkpt lat="44.47901" lon="6.81503">
        <ele>1874</ele>
        <time>2013-08-22T09:23:28.000Z</time>
      </trkpt>
      <trkpt lat="44.4786" lon="6.81534">
        <ele>1875</ele>
        <time>2013-08-22T09:23:47.000Z</time>
      </trkpt>
      <trkpt lat="44.4782" lon="6.81569">
        <ele>1877</ele>
        <time>2013-08-22T09:24:06.000Z</time>
      </trkpt>
      <trkpt lat="44.47782" lon="6.81596">
        <ele>1878</ele>
        <time>2013-08-22T09:24:22.000Z</time>
      </trkpt>
      <trkpt lat="44.47741" lon="6.8163">
        <ele>1879</ele>
        <time>2013-08-22T09:24:37.000Z</time>
      </trkpt>
      <trkpt lat="44.47716" lon="6.81646">
        <ele>1879</ele>
        <time>2013-08-22T09:24:51.000Z</time>
      </trkpt>
      <trkpt lat="44.47714" lon="6.81658">
        <ele>1879</ele>
        <time>2013-08-22T09:25:03.000Z</time>
      </trkpt>
      <trkpt lat="44.47714" lon="6.81657">
        <ele>1877</ele>
        <time>2013-08-22T09:26:09.000Z</time>
      </trkpt>
      <trkpt lat="44.4769" lon="6.81672">
        <ele>1877</ele>
        <time>2013-08-22T09:26:17.000Z</time>
      </trkpt>
      <trkpt lat="44.47676" lon="6.81713">
        <ele>1875</ele>
        <time>2013-08-22T09:26:28.000Z</time>
      </trkpt>
      <trkpt lat="44.47661" lon="6.81755">
        <ele>1873</ele>
        <time>2013-08-22T09:26:36.000Z</time>
      </trkpt>
      <trkpt lat="44.47652" lon="6.8183">
        <ele>1869</ele>
        <time>2013-08-22T09:26:47.000Z</time>
      </trkpt>
      <trkpt lat="44.47648" lon="6.81867">
        <ele>1867</ele>
        <time>2013-08-22T09:26:53.000Z</time>
      </trkpt>
      <trkpt lat="44.47671" lon="6.81912">
        <ele>1864</ele>
        <time>2013-08-22T09:27:04.000Z</time>
      </trkpt>
      <trkpt lat="44.477" lon="6.81919">
        <ele>1864</ele>
        <time>2013-08-22T09:27:16.000Z</time>
      </trkpt>
      <trkpt lat="44.47721" lon="6.81934">
        <ele>1865</ele>
        <time>2013-08-22T09:27:30.000Z</time>
      </trkpt>
      <trkpt lat="44.4773" lon="6.81977">
        <ele>1867</ele>
        <time>2013-08-22T09:27:45.000Z</time>
      </trkpt>
      <trkpt lat="44.47728" lon="6.82021">
        <ele>1868</ele>
        <time>2013-08-22T09:27:57.000Z</time>
      </trkpt>
      <trkpt lat="44.47728" lon="6.82058">
        <ele>1871</ele>
        <time>2013-08-22T09:28:11.000Z</time>
      </trkpt>
      <trkpt lat="44.4775" lon="6.82078">
        <ele>1872</ele>
        <time>2013-08-22T09:28:24.000Z</time>
      </trkpt>
      <trkpt lat="44.47783" lon="6.82076">
        <ele>1872</ele>
        <time>2013-08-22T09:28:37.000Z</time>
      </trkpt>
      <trkpt lat="44.47805" lon="6.82063">
        <ele>1872</ele>
        <time>2013-08-22T09:28:46.000Z</time>
      </trkpt>
      <trkpt lat="44.47813" lon="6.82096">
        <ele>1873</ele>
        <time>2013-08-22T09:28:57.000Z</time>
      </trkpt>
      <trkpt lat="44.47797" lon="6.82172">
        <ele>1875</ele>
        <time>2013-08-22T09:29:15.000Z</time>
      </trkpt>
      <trkpt lat="44.47782" lon="6.82218">
        <ele>1875</ele>
        <time>2013-08-22T09:29:26.000Z</time>
      </trkpt>
      <trkpt lat="44.47793" lon="6.82291">
        <ele>1875</ele>
        <time>2013-08-22T09:29:38.000Z</time>
      </trkpt>
      <trkpt lat="44.47798" lon="6.82336">
        <ele>1876</ele>
        <time>2013-08-22T09:29:50.000Z</time>
      </trkpt>
      <trkpt lat="44.47807" lon="6.82402">
        <ele>1878</ele>
        <time>2013-08-22T09:30:10.000Z</time>
      </trkpt>
      <trkpt lat="44.4781" lon="6.82468">
        <ele>1879</ele>
        <time>2013-08-22T09:30:29.000Z</time>
      </trkpt>
      <trkpt lat="44.4781" lon="6.82504">
        <ele>1881</ele>
        <time>2013-08-22T09:30:42.000Z</time>
      </trkpt>
      <trkpt lat="44.47815" lon="6.82537">
        <ele>1884</ele>
        <time>2013-08-22T09:30:56.000Z</time>
      </trkpt>
      <trkpt lat="44.47815" lon="6.82558">
        <ele>1886</ele>
        <time>2013-08-22T09:31:07.000Z</time>
      </trkpt>
      <trkpt lat="44.47802" lon="6.82584">
        <ele>1888</ele>
        <time>2013-08-22T09:31:23.000Z</time>
      </trkpt>
      <trkpt lat="44.47801" lon="6.82621">
        <ele>1891</ele>
        <time>2013-08-22T09:31:40.000Z</time>
      </trkpt>
      <trkpt lat="44.47811" lon="6.82656">
        <ele>1894</ele>
        <time>2013-08-22T09:31:58.000Z</time>
      </trkpt>
      <trkpt lat="44.47809" lon="6.82688">
        <ele>1897</ele>
        <time>2013-08-22T09:32:13.000Z</time>
      </trkpt>
      <trkpt lat="44.47787" lon="6.8269">
        <ele>1900</ele>
        <time>2013-08-22T09:32:29.000Z</time>
      </trkpt>
      <trkpt lat="44.47761" lon="6.82679">
        <ele>1902</ele>
        <time>2013-08-22T09:32:46.000Z</time>
      </trkpt>
      <trkpt lat="44.47737" lon="6.82673">
        <ele>1905</ele>
        <time>2013-08-22T09:33:04.000Z</time>
      </trkpt>
      <trkpt lat="44.47723" lon="6.8267">
        <ele>1908</ele>
        <time>2013-08-22T09:33:16.000Z</time>
      </trkpt>
      <trkpt lat="44.47704" lon="6.82669">
        <ele>1910</ele>
        <time>2013-08-22T09:33:32.000Z</time>
      </trkpt>
      <trkpt lat="44.47679" lon="6.82663">
        <ele>1913</ele>
        <time>2013-08-22T09:33:48.000Z</time>
      </trkpt>
      <trkpt lat="44.47663" lon="6.8264">
        <ele>1915</ele>
        <time>2013-08-22T09:34:00.000Z</time>
      </trkpt>
      <trkpt lat="44.47646" lon="6.82617">
        <ele>1917</ele>
        <time>2013-08-22T09:34:15.000Z</time>
      </trkpt>
      <trkpt lat="44.47641" lon="6.8262">
        <ele>1918</ele>
        <time>2013-08-22T09:34:22.000Z</time>
      </trkpt>
      <trkpt lat="44.47646" lon="6.82625">
        <ele>1918</ele>
        <time>2013-08-22T09:37:51.000Z</time>
      </trkpt>
      <trkpt lat="44.47655" lon="6.82636">
        <ele>1918</ele>
        <time>2013-08-22T09:38:40.000Z</time>
      </trkpt>
      <trkpt lat="44.4766" lon="6.82652">
        <ele>1919</ele>
        <time>2013-08-22T09:38:49.000Z</time>
      </trkpt>
      <trkpt lat="44.47668" lon="6.82675">
        <ele>1923</ele>
        <time>2013-08-22T09:39:03.000Z</time>
      </trkpt>
      <trkpt lat="44.47679" lon="6.82694">
        <ele>1926</ele>
        <time>2013-08-22T09:39:17.000Z</time>
      </trkpt>
      <trkpt lat="44.47695" lon="6.82704">
        <ele>1929</ele>
        <time>2013-08-22T09:39:35.000Z</time>
      </trkpt>
      <trkpt lat="44.4771" lon="6.8271">
        <ele>1932</ele>
        <time>2013-08-22T09:39:52.000Z</time>
      </trkpt>
      <trkpt lat="44.47715" lon="6.82719">
        <ele>1934</ele>
        <time>2013-08-22T09:40:00.000Z</time>
      </trkpt>
      <trkpt lat="44.4771" lon="6.82734">
        <ele>1935</ele>
        <time>2013-08-22T09:40:10.000Z</time>
      </trkpt>
      <trkpt lat="44.47695" lon="6.82755">
        <ele>1937</ele>
        <time>2013-08-22T09:40:27.000Z</time>
      </trkpt>
      <trkpt lat="44.47685" lon="6.82767">
        <ele>1939</ele>
        <time>2013-08-22T09:40:39.000Z</time>
      </trkpt>
      <trkpt lat="44.47686" lon="6.82784">
        <ele>1941</ele>
        <time>2013-08-22T09:40:51.000Z</time>
      </trkpt>
      <trkpt lat="44.47708" lon="6.82792">
        <ele>1943</ele>
        <time>2013-08-22T09:41:10.000Z</time>
      </trkpt>
      <trkpt lat="44.47726" lon="6.82797">
        <ele>1946</ele>
        <time>2013-08-22T09:41:26.000Z</time>
      </trkpt>
      <trkpt lat="44.47746" lon="6.82797">
        <ele>1949</ele>
        <time>2013-08-22T09:41:43.000Z</time>
      </trkpt>
      <trkpt lat="44.4775" lon="6.82816">
        <ele>1951</ele>
        <time>2013-08-22T09:41:57.000Z</time>
      </trkpt>
      <trkpt lat="44.47734" lon="6.82838">
        <ele>1954</ele>
        <time>2013-08-22T09:42:14.000Z</time>
      </trkpt>
      <trkpt lat="44.47713" lon="6.82855">
        <ele>1956</ele>
        <time>2013-08-22T09:42:30.000Z</time>
      </trkpt>
      <trkpt lat="44.47687" lon="6.82868">
        <ele>1959</ele>
        <time>2013-08-22T09:42:47.000Z</time>
      </trkpt>
      <trkpt lat="44.47679" lon="6.82887">
        <ele>1961</ele>
        <time>2013-08-22T09:42:59.000Z</time>
      </trkpt>
      <trkpt lat="44.477" lon="6.82885">
        <ele>1963</ele>
        <time>2013-08-22T09:43:12.000Z</time>
      </trkpt>
      <trkpt lat="44.47729" lon="6.82898">
        <ele>1966</ele>
        <time>2013-08-22T09:43:28.000Z</time>
      </trkpt>
      <trkpt lat="44.47752" lon="6.82904">
        <ele>1969</ele>
        <time>2013-08-22T09:43:41.000Z</time>
      </trkpt>
      <trkpt lat="44.47775" lon="6.82909">
        <ele>1972</ele>
        <time>2013-08-22T09:43:57.000Z</time>
      </trkpt>
      <trkpt lat="44.47802" lon="6.82937">
        <ele>1976</ele>
        <time>2013-08-22T09:44:18.000Z</time>
      </trkpt>
      <trkpt lat="44.47806" lon="6.82967">
        <ele>1978</ele>
        <time>2013-08-22T09:44:30.000Z</time>
      </trkpt>
      <trkpt lat="44.47824" lon="6.82968">
        <ele>1978</ele>
        <time>2013-08-22T09:44:38.000Z</time>
      </trkpt>
      <trkpt lat="44.4785" lon="6.82963">
        <ele>1980</ele>
        <time>2013-08-22T09:44:53.000Z</time>
      </trkpt>
      <trkpt lat="44.47858" lon="6.82991">
        <ele>1983</ele>
        <time>2013-08-22T09:45:06.000Z</time>
      </trkpt>
      <trkpt lat="44.47874" lon="6.83007">
        <ele>1986</ele>
        <time>2013-08-22T09:45:19.000Z</time>
      </trkpt>
      <trkpt lat="44.47896" lon="6.83035">
        <ele>1989</ele>
        <time>2013-08-22T09:45:34.000Z</time>
      </trkpt>
      <trkpt lat="44.47915" lon="6.83051">
        <ele>1990</ele>
        <time>2013-08-22T09:45:47.000Z</time>
      </trkpt>
      <trkpt lat="44.47933" lon="6.83071">
        <ele>1992</ele>
        <time>2013-08-22T09:45:58.000Z</time>
      </trkpt>
      <trkpt lat="44.47958" lon="6.83103">
        <ele>1993</ele>
        <time>2013-08-22T09:46:12.000Z</time>
      </trkpt>
      <trkpt lat="44.4798" lon="6.83113">
        <ele>1993</ele>
        <time>2013-08-22T09:46:23.000Z</time>
      </trkpt>
      <trkpt lat="44.4799" lon="6.83079">
        <ele>1994</ele>
        <time>2013-08-22T09:46:36.000Z</time>
      </trkpt>
      <trkpt lat="44.47989" lon="6.83038">
        <ele>1996</ele>
        <time>2013-08-22T09:46:52.000Z</time>
      </trkpt>
      <trkpt lat="44.47984" lon="6.83006">
        <ele>1998</ele>
        <time>2013-08-22T09:47:06.000Z</time>
      </trkpt>
      <trkpt lat="44.47985" lon="6.82957">
        <ele>2002</ele>
        <time>2013-08-22T09:47:25.000Z</time>
      </trkpt>
      <trkpt lat="44.4799" lon="6.82915">
        <ele>2005</ele>
        <time>2013-08-22T09:47:40.000Z</time>
      </trkpt>
      <trkpt lat="44.47998" lon="6.82913">
        <ele>2006</ele>
        <time>2013-08-22T09:47:47.000Z</time>
      </trkpt>
      <trkpt lat="44.47998" lon="6.82955">
        <ele>2010</ele>
        <time>2013-08-22T09:48:04.000Z</time>
      </trkpt>
      <trkpt lat="44.47997" lon="6.82986">
        <ele>2013</ele>
        <time>2013-08-22T09:48:19.000Z</time>
      </trkpt>
      <trkpt lat="44.48012" lon="6.83006">
        <ele>2015</ele>
        <time>2013-08-22T09:48:34.000Z</time>
      </trkpt>
      <trkpt lat="44.48024" lon="6.83033">
        <ele>2019</ele>
        <time>2013-08-22T09:48:52.000Z</time>
      </trkpt>
      <trkpt lat="44.48029" lon="6.83018">
        <ele>2020</ele>
        <time>2013-08-22T09:49:03.000Z</time>
      </trkpt>
      <trkpt lat="44.48027" lon="6.83005">
        <ele>2021</ele>
        <time>2013-08-22T09:49:10.000Z</time>
      </trkpt>
      <trkpt lat="44.48022" lon="6.82979">
        <ele>2024</ele>
        <time>2013-08-22T09:49:24.000Z</time>
      </trkpt>
      <trkpt lat="44.48029" lon="6.82957">
        <ele>2026</ele>
        <time>2013-08-22T09:49:37.000Z</time>
      </trkpt>
      <trkpt lat="44.48034" lon="6.82963">
        <ele>2028</ele>
        <time>2013-08-22T09:49:45.000Z</time>
      </trkpt>
      <trkpt lat="44.48042" lon="6.82994">
        <ele>2031</ele>
        <time>2013-08-22T09:50:02.000Z</time>
      </trkpt>
      <trkpt lat="44.48053" lon="6.83016">
        <ele>2033</ele>
        <time>2013-08-22T09:50:16.000Z</time>
      </trkpt>
      <trkpt lat="44.48068" lon="6.83046">
        <ele>2036</ele>
        <time>2013-08-22T09:50:34.000Z</time>
      </trkpt>
      <trkpt lat="44.48084" lon="6.83072">
        <ele>2040</ele>
        <time>2013-08-22T09:50:53.000Z</time>
      </trkpt>
      <trkpt lat="44.4809" lon="6.83099">
        <ele>2042</ele>
        <time>2013-08-22T09:51:08.000Z</time>
      </trkpt>
      <trkpt lat="44.48098" lon="6.83096">
        <ele>2044</ele>
        <time>2013-08-22T09:51:18.000Z</time>
      </trkpt>
      <trkpt lat="44.48096" lon="6.83086">
        <ele>2045</ele>
        <time>2013-08-22T09:51:23.000Z</time>
      </trkpt>
      <trkpt lat="44.48098" lon="6.83063">
        <ele>2047</ele>
        <time>2013-08-22T09:51:35.000Z</time>
      </trkpt>
      <trkpt lat="44.48091" lon="6.83035">
        <ele>2050</ele>
        <time>2013-08-22T09:51:50.000Z</time>
      </trkpt>
      <trkpt lat="44.48094" lon="6.83033">
        <ele>2051</ele>
        <time>2013-08-22T09:51:56.000Z</time>
      </trkpt>
      <trkpt lat="44.48103" lon="6.83047">
        <ele>2053</ele>
        <time>2013-08-22T09:52:06.000Z</time>
      </trkpt>
      <trkpt lat="44.48108" lon="6.83054">
        <ele>2053</ele>
        <time>2013-08-22T09:52:11.000Z</time>
      </trkpt>
      <trkpt lat="44.48121" lon="6.83075">
        <ele>2056</ele>
        <time>2013-08-22T09:52:27.000Z</time>
      </trkpt>
      <trkpt lat="44.48141" lon="6.83097">
        <ele>2059</ele>
        <time>2013-08-22T09:52:46.000Z</time>
      </trkpt>
      <trkpt lat="44.48156" lon="6.8311">
        <ele>2062</ele>
        <time>2013-08-22T09:52:59.000Z</time>
      </trkpt>
      <trkpt lat="44.4817" lon="6.8312">
        <ele>2064</ele>
        <time>2013-08-22T09:53:10.000Z</time>
      </trkpt>
      <trkpt lat="44.48189" lon="6.83134">
        <ele>2067</ele>
        <time>2013-08-22T09:53:25.000Z</time>
      </trkpt>
      <trkpt lat="44.48205" lon="6.83154">
        <ele>2069</ele>
        <time>2013-08-22T09:53:40.000Z</time>
      </trkpt>
      <trkpt lat="44.48214" lon="6.83166">
        <ele>2071</ele>
        <time>2013-08-22T09:53:50.000Z</time>
      </trkpt>
      <trkpt lat="44.4822" lon="6.83174">
        <ele>2072</ele>
        <time>2013-08-22T09:53:57.000Z</time>
      </trkpt>
      <trkpt lat="44.48226" lon="6.83209">
        <ele>2075</ele>
        <time>2013-08-22T09:54:15.000Z</time>
      </trkpt>
      <trkpt lat="44.48235" lon="6.83236">
        <ele>2078</ele>
        <time>2013-08-22T09:54:29.000Z</time>
      </trkpt>
      <trkpt lat="44.48236" lon="6.83264">
        <ele>2080</ele>
        <time>2013-08-22T09:54:43.000Z</time>
      </trkpt>
      <trkpt lat="44.48235" lon="6.83295">
        <ele>2083</ele>
        <time>2013-08-22T09:54:59.000Z</time>
      </trkpt>
      <trkpt lat="44.48236" lon="6.83317">
        <ele>2085</ele>
        <time>2013-08-22T09:55:11.000Z</time>
      </trkpt>
      <trkpt lat="44.48241" lon="6.83319">
        <ele>2086</ele>
        <time>2013-08-22T09:55:20.000Z</time>
      </trkpt>
      <trkpt lat="44.48245" lon="6.83294">
        <ele>2087</ele>
        <time>2013-08-22T09:55:33.000Z</time>
      </trkpt>
      <trkpt lat="44.48259" lon="6.83269">
        <ele>2090</ele>
        <time>2013-08-22T09:55:49.000Z</time>
      </trkpt>
      <trkpt lat="44.48264" lon="6.83251">
        <ele>2092</ele>
        <time>2013-08-22T09:56:00.000Z</time>
      </trkpt>
      <trkpt lat="44.48268" lon="6.83255">
        <ele>2093</ele>
        <time>2013-08-22T09:56:06.000Z</time>
      </trkpt>
      <trkpt lat="44.48265" lon="6.83294">
        <ele>2096</ele>
        <time>2013-08-22T09:56:24.000Z</time>
      </trkpt>
      <trkpt lat="44.48266" lon="6.83322">
        <ele>2099</ele>
        <time>2013-08-22T09:56:38.000Z</time>
      </trkpt>
      <trkpt lat="44.4827" lon="6.83327">
        <ele>2100</ele>
        <time>2013-08-22T09:56:46.000Z</time>
      </trkpt>
      <trkpt lat="44.48277" lon="6.83306">
        <ele>2102</ele>
        <time>2013-08-22T09:56:57.000Z</time>
      </trkpt>
      <trkpt lat="44.48293" lon="6.83276">
        <ele>2106</ele>
        <time>2013-08-22T09:57:16.000Z</time>
      </trkpt>
      <trkpt lat="44.48301" lon="6.83259">
        <ele>2108</ele>
        <time>2013-08-22T09:57:28.000Z</time>
      </trkpt>
      <trkpt lat="44.48299" lon="6.83286">
        <ele>2110</ele>
        <time>2013-08-22T09:57:39.000Z</time>
      </trkpt>
      <trkpt lat="44.48302" lon="6.8332">
        <ele>2113</ele>
        <time>2013-08-22T09:57:54.000Z</time>
      </trkpt>
      <trkpt lat="44.48298" lon="6.8335">
        <ele>2116</ele>
        <time>2013-08-22T09:58:09.000Z</time>
      </trkpt>
      <trkpt lat="44.483" lon="6.83373">
        <ele>2118</ele>
        <time>2013-08-22T09:58:23.000Z</time>
      </trkpt>
      <trkpt lat="44.48305" lon="6.83387">
        <ele>2119</ele>
        <time>2013-08-22T09:58:32.000Z</time>
      </trkpt>
      <trkpt lat="44.48309" lon="6.83373">
        <ele>2121</ele>
        <time>2013-08-22T09:58:41.000Z</time>
      </trkpt>
      <trkpt lat="44.48318" lon="6.83345">
        <ele>2123</ele>
        <time>2013-08-22T09:58:56.000Z</time>
      </trkpt>
      <trkpt lat="44.4833" lon="6.83322">
        <ele>2126</ele>
        <time>2013-08-22T09:59:12.000Z</time>
      </trkpt>
      <trkpt lat="44.48332" lon="6.83296">
        <ele>2128</ele>
        <time>2013-08-22T09:59:26.000Z</time>
      </trkpt>
      <trkpt lat="44.48337" lon="6.83286">
        <ele>2130</ele>
        <time>2013-08-22T09:59:38.000Z</time>
      </trkpt>
      <trkpt lat="44.48342" lon="6.83318">
        <ele>2132</ele>
        <time>2013-08-22T09:59:53.000Z</time>
      </trkpt>
      <trkpt lat="44.48343" lon="6.83352">
        <ele>2135</ele>
        <time>2013-08-22T10:00:10.000Z</time>
      </trkpt>
      <trkpt lat="44.48343" lon="6.83388">
        <ele>2139</ele>
        <time>2013-08-22T10:00:28.000Z</time>
      </trkpt>
      <trkpt lat="44.48346" lon="6.83418">
        <ele>2142</ele>
        <time>2013-08-22T10:00:45.000Z</time>
      </trkpt>
      <trkpt lat="44.48369" lon="6.83439">
        <ele>2145</ele>
        <time>2013-08-22T10:01:03.000Z</time>
      </trkpt>
      <trkpt lat="44.48387" lon="6.83454">
        <ele>2148</ele>
        <time>2013-08-22T10:01:19.000Z</time>
      </trkpt>
      <trkpt lat="44.484" lon="6.83475">
        <ele>2150</ele>
        <time>2013-08-22T10:01:34.000Z</time>
      </trkpt>
      <trkpt lat="44.48396" lon="6.8344">
        <ele>2154</ele>
        <time>2013-08-22T10:01:52.000Z</time>
      </trkpt>
      <trkpt lat="44.48389" lon="6.83416">
        <ele>2157</ele>
        <time>2013-08-22T10:02:07.000Z</time>
      </trkpt>
      <trkpt lat="44.48404" lon="6.83435">
        <ele>2159</ele>
        <time>2013-08-22T10:02:21.000Z</time>
      </trkpt>
      <trkpt lat="44.48417" lon="6.83455">
        <ele>2161</ele>
        <time>2013-08-22T10:02:35.000Z</time>
      </trkpt>
      <trkpt lat="44.48436" lon="6.83486">
        <ele>2165</ele>
        <time>2013-08-22T10:02:56.000Z</time>
      </trkpt>
      <trkpt lat="44.4845" lon="6.83514">
        <ele>2169</ele>
        <time>2013-08-22T10:03:12.000Z</time>
      </trkpt>
      <trkpt lat="44.4845" lon="6.83544">
        <ele>2171</ele>
        <time>2013-08-22T10:03:26.000Z</time>
      </trkpt>
      <trkpt lat="44.48461" lon="6.83578">
        <ele>2174</ele>
        <time>2013-08-22T10:03:44.000Z</time>
      </trkpt>
      <trkpt lat="44.48479" lon="6.83606">
        <ele>2178</ele>
        <time>2013-08-22T10:04:02.000Z</time>
      </trkpt>
      <trkpt lat="44.48494" lon="6.83626">
        <ele>2181</ele>
        <time>2013-08-22T10:04:16.000Z</time>
      </trkpt>
      <trkpt lat="44.48512" lon="6.83651">
        <ele>2184</ele>
        <time>2013-08-22T10:04:34.000Z</time>
      </trkpt>
      <trkpt lat="44.48517" lon="6.83694">
        <ele>2188</ele>
        <time>2013-08-22T10:04:55.000Z</time>
      </trkpt>
      <trkpt lat="44.48516" lon="6.8373">
        <ele>2191</ele>
        <time>2013-08-22T10:05:12.000Z</time>
      </trkpt>
      <trkpt lat="44.48522" lon="6.83775">
        <ele>2195</ele>
        <time>2013-08-22T10:05:35.000Z</time>
      </trkpt>
      <trkpt lat="44.48538" lon="6.83803">
        <ele>2199</ele>
        <time>2013-08-22T10:05:52.000Z</time>
      </trkpt>
      <trkpt lat="44.48559" lon="6.83833">
        <ele>2200</ele>
        <time>2013-08-22T10:06:10.000Z</time>
      </trkpt>
      <trkpt lat="44.48569" lon="6.83849">
        <ele>2202</ele>
        <time>2013-08-22T10:06:20.000Z</time>
      </trkpt>
      <trkpt lat="44.48575" lon="6.83882">
        <ele>2203</ele>
        <time>2013-08-22T10:06:36.000Z</time>
      </trkpt>
      <trkpt lat="44.48577" lon="6.83894">
        <ele>2204</ele>
        <time>2013-08-22T10:06:51.000Z</time>
      </trkpt>
      <trkpt lat="44.48572" lon="6.83901">
        <ele>2206</ele>
        <time>2013-08-22T10:15:50.000Z</time>
      </trkpt>
      <trkpt lat="44.48571" lon="6.83896">
        <ele>2206</ele>
        <time>2013-08-22T10:17:45.000Z</time>
      </trkpt>
      <trkpt lat="44.4857" lon="6.83898">
        <ele>2206</ele>
        <time>2013-08-22T10:18:57.000Z</time>
      </trkpt>
      <trkpt lat="44.48561" lon="6.83896">
        <ele>2205</ele>
        <time>2013-08-22T10:22:01.000Z</time>
      </trkpt>
      <trkpt lat="44.48562" lon="6.83919">
        <ele>2205</ele>
        <time>2013-08-22T10:22:19.000Z</time>
      </trkpt>
      <trkpt lat="44.48554" lon="6.83901">
        <ele>2206</ele>
        <time>2013-08-22T10:22:27.000Z</time>
      </trkpt>
      <trkpt lat="44.48538" lon="6.83886">
        <ele>2208</ele>
        <time>2013-08-22T10:22:40.000Z</time>
      </trkpt>
      <trkpt lat="44.48517" lon="6.83878">
        <ele>2210</ele>
        <time>2013-08-22T10:22:57.000Z</time>
      </trkpt>
      <trkpt lat="44.48501" lon="6.83867">
        <ele>2213</ele>
        <time>2013-08-22T10:23:12.000Z</time>
      </trkpt>
      <trkpt lat="44.48495" lon="6.83861">
        <ele>2213</ele>
        <time>2013-08-22T10:23:18.000Z</time>
      </trkpt>
      <trkpt lat="44.48482" lon="6.83849">
        <ele>2216</ele>
        <time>2013-08-22T10:23:31.000Z</time>
      </trkpt>
      <trkpt lat="44.48475" lon="6.83841">
        <ele>2217</ele>
        <time>2013-08-22T10:23:42.000Z</time>
      </trkpt>
      <trkpt lat="44.4847" lon="6.8384">
        <ele>2218</ele>
        <time>2013-08-22T10:23:49.000Z</time>
      </trkpt>
      <trkpt lat="44.48471" lon="6.83849">
        <ele>2219</ele>
        <time>2013-08-22T10:23:59.000Z</time>
      </trkpt>
      <trkpt lat="44.48473" lon="6.83872">
        <ele>2221</ele>
        <time>2013-08-22T10:24:16.000Z</time>
      </trkpt>
      <trkpt lat="44.48475" lon="6.83894">
        <ele>2223</ele>
        <time>2013-08-22T10:24:32.000Z</time>
      </trkpt>
      <trkpt lat="44.48474" lon="6.83902">
        <ele>2224</ele>
        <time>2013-08-22T10:24:40.000Z</time>
      </trkpt>
      <trkpt lat="44.48477" lon="6.83934">
        <ele>2226</ele>
        <time>2013-08-22T10:24:54.000Z</time>
      </trkpt>
      <trkpt lat="44.48481" lon="6.83961">
        <ele>2229</ele>
        <time>2013-08-22T10:25:09.000Z</time>
      </trkpt>
      <trkpt lat="44.48491" lon="6.83996">
        <ele>2232</ele>
        <time>2013-08-22T10:25:29.000Z</time>
      </trkpt>
      <trkpt lat="44.48495" lon="6.84028">
        <ele>2236</ele>
        <time>2013-08-22T10:25:47.000Z</time>
      </trkpt>
      <trkpt lat="44.48504" lon="6.84054">
        <ele>2239</ele>
        <time>2013-08-22T10:26:03.000Z</time>
      </trkpt>
      <trkpt lat="44.48522" lon="6.84079">
        <ele>2242</ele>
        <time>2013-08-22T10:26:22.000Z</time>
      </trkpt>
      <trkpt lat="44.48531" lon="6.84091">
        <ele>2243</ele>
        <time>2013-08-22T10:26:31.000Z</time>
      </trkpt>
      <trkpt lat="44.48549" lon="6.84112">
        <ele>2247</ele>
        <time>2013-08-22T10:26:49.000Z</time>
      </trkpt>
      <trkpt lat="44.48554" lon="6.84146">
        <ele>2250</ele>
        <time>2013-08-22T10:27:08.000Z</time>
      </trkpt>
      <trkpt lat="44.48555" lon="6.84175">
        <ele>2253</ele>
        <time>2013-08-22T10:27:25.000Z</time>
      </trkpt>
      <trkpt lat="44.48556" lon="6.84205">
        <ele>2256</ele>
        <time>2013-08-22T10:27:43.000Z</time>
      </trkpt>
      <trkpt lat="44.48553" lon="6.8422">
        <ele>2257</ele>
        <time>2013-08-22T10:27:52.000Z</time>
      </trkpt>
      <trkpt lat="44.48536" lon="6.84228">
        <ele>2259</ele>
        <time>2013-08-22T10:28:06.000Z</time>
      </trkpt>
      <trkpt lat="44.48517" lon="6.8423">
        <ele>2262</ele>
        <time>2013-08-22T10:28:23.000Z</time>
      </trkpt>
      <trkpt lat="44.48502" lon="6.84212">
        <ele>2264</ele>
        <time>2013-08-22T10:28:38.000Z</time>
      </trkpt>
      <trkpt lat="44.48494" lon="6.84232">
        <ele>2267</ele>
        <time>2013-08-22T10:28:51.000Z</time>
      </trkpt>
      <trkpt lat="44.48497" lon="6.84266">
        <ele>2270</ele>
        <time>2013-08-22T10:29:08.000Z</time>
      </trkpt>
      <trkpt lat="44.48509" lon="6.84294">
        <ele>2273</ele>
        <time>2013-08-22T10:29:24.000Z</time>
      </trkpt>
      <trkpt lat="44.48524" lon="6.84325">
        <ele>2277</ele>
        <time>2013-08-22T10:29:42.000Z</time>
      </trkpt>
      <trkpt lat="44.48547" lon="6.84339">
        <ele>2280</ele>
        <time>2013-08-22T10:30:00.000Z</time>
      </trkpt>
      <trkpt lat="44.48552" lon="6.84351">
        <ele>2282</ele>
        <time>2013-08-22T10:30:10.000Z</time>
      </trkpt>
      <trkpt lat="44.48544" lon="6.84373">
        <ele>2285</ele>
        <time>2013-08-22T10:30:28.000Z</time>
      </trkpt>
      <trkpt lat="44.48543" lon="6.84384">
        <ele>2286</ele>
        <time>2013-08-22T10:30:43.000Z</time>
      </trkpt>
      <trkpt lat="44.4854" lon="6.84426">
        <ele>2289</ele>
        <time>2013-08-22T10:30:59.000Z</time>
      </trkpt>
      <trkpt lat="44.48542" lon="6.84459">
        <ele>2292</ele>
        <time>2013-08-22T10:31:14.000Z</time>
      </trkpt>
      <trkpt lat="44.48541" lon="6.84505">
        <ele>2296</ele>
        <time>2013-08-22T10:31:34.000Z</time>
      </trkpt>
      <trkpt lat="44.48535" lon="6.84546">
        <ele>2299</ele>
        <time>2013-08-22T10:31:52.000Z</time>
      </trkpt>
      <trkpt lat="44.48529" lon="6.84561">
        <ele>2300</ele>
        <time>2013-08-22T10:32:03.000Z</time>
      </trkpt>
      <trkpt lat="44.48528" lon="6.84543">
        <ele>2302</ele>
        <time>2013-08-22T10:32:12.000Z</time>
      </trkpt>
      <trkpt lat="44.48523" lon="6.84523">
        <ele>2304</ele>
        <time>2013-08-22T10:32:24.000Z</time>
      </trkpt>
      <trkpt lat="44.48509" lon="6.84507">
        <ele>2307</ele>
        <time>2013-08-22T10:32:39.000Z</time>
      </trkpt>
      <trkpt lat="44.48502" lon="6.84494">
        <ele>2309</ele>
        <time>2013-08-22T10:32:48.000Z</time>
      </trkpt>
      <trkpt lat="44.48493" lon="6.84489">
        <ele>2310</ele>
        <time>2013-08-22T10:32:56.000Z</time>
      </trkpt>
      <trkpt lat="44.48485" lon="6.84472">
        <ele>2311</ele>
        <time>2013-08-22T10:33:05.000Z</time>
      </trkpt>
      <trkpt lat="44.48479" lon="6.84438">
        <ele>2315</ele>
        <time>2013-08-22T10:33:24.000Z</time>
      </trkpt>
      <trkpt lat="44.48473" lon="6.84405">
        <ele>2318</ele>
        <time>2013-08-22T10:33:41.000Z</time>
      </trkpt>
      <trkpt lat="44.4847" lon="6.84426">
        <ele>2320</ele>
        <time>2013-08-22T10:33:54.000Z</time>
      </trkpt>
      <trkpt lat="44.48456" lon="6.84455">
        <ele>2323</ele>
        <time>2013-08-22T10:34:13.000Z</time>
      </trkpt>
      <trkpt lat="44.48448" lon="6.84489">
        <ele>2327</ele>
        <time>2013-08-22T10:34:33.000Z</time>
      </trkpt>
      <trkpt lat="44.48454" lon="6.84523">
        <ele>2330</ele>
        <time>2013-08-22T10:34:50.000Z</time>
      </trkpt>
      <trkpt lat="44.4845" lon="6.84564">
        <ele>2333</ele>
        <time>2013-08-22T10:35:10.000Z</time>
      </trkpt>
      <trkpt lat="44.48437" lon="6.84593">
        <ele>2336</ele>
        <time>2013-08-22T10:35:26.000Z</time>
      </trkpt>
      <trkpt lat="44.48416" lon="6.84635">
        <ele>2340</ele>
        <time>2013-08-22T10:35:48.000Z</time>
      </trkpt>
      <trkpt lat="44.48405" lon="6.84659">
        <ele>2342</ele>
        <time>2013-08-22T10:36:00.000Z</time>
      </trkpt>
      <trkpt lat="44.48383" lon="6.84694">
        <ele>2346</ele>
        <time>2013-08-22T10:36:19.000Z</time>
      </trkpt>
      <trkpt lat="44.48367" lon="6.84716">
        <ele>2349</ele>
        <time>2013-08-22T10:36:34.000Z</time>
      </trkpt>
      <trkpt lat="44.48365" lon="6.8472">
        <ele>2349</ele>
        <time>2013-08-22T10:36:40.000Z</time>
      </trkpt>
      <trkpt lat="44.48369" lon="6.84721">
        <ele>2349</ele>
        <time>2013-08-22T10:38:11.000Z</time>
      </trkpt>
      <trkpt lat="44.48375" lon="6.84725">
        <ele>2350</ele>
        <time>2013-08-22T10:38:21.000Z</time>
      </trkpt>
      <trkpt lat="44.48377" lon="6.84729">
        <ele>2350</ele>
        <time>2013-08-22T10:38:27.000Z</time>
      </trkpt>
      <trkpt lat="44.48386" lon="6.84735">
        <ele>2352</ele>
        <time>2013-08-22T10:42:12.000Z</time>
      </trkpt>
      <trkpt lat="44.48399" lon="6.84756">
        <ele>2350</ele>
        <time>2013-08-22T10:42:20.000Z</time>
      </trkpt>
      <trkpt lat="44.48417" lon="6.84786">
        <ele>2347</ele>
        <time>2013-08-22T10:42:29.000Z</time>
      </trkpt>
      <trkpt lat="44.4844" lon="6.84826">
        <ele>2343</ele>
        <time>2013-08-22T10:42:41.000Z</time>
      </trkpt>
      <trkpt lat="44.48449" lon="6.84848">
        <ele>2342</ele>
        <time>2013-08-22T10:42:52.000Z</time>
      </trkpt>
      <trkpt lat="44.48467" lon="6.84873">
        <ele>2340</ele>
        <time>2013-08-22T10:43:03.000Z</time>
      </trkpt>
      <trkpt lat="44.48472" lon="6.84876">
        <ele>2340</ele>
        <time>2013-08-22T10:43:10.000Z</time>
      </trkpt>
      <trkpt lat="44.48479" lon="6.8488">
        <ele>2341</ele>
        <time>2013-08-22T10:43:21.000Z</time>
      </trkpt>
      <trkpt lat="44.48494" lon="6.8488">
        <ele>2344</ele>
        <time>2013-08-22T10:43:39.000Z</time>
      </trkpt>
      <trkpt lat="44.48501" lon="6.84881">
        <ele>2345</ele>
        <time>2013-08-22T10:43:50.000Z</time>
      </trkpt>
      <trkpt lat="44.48516" lon="6.84891">
        <ele>2345</ele>
        <time>2013-08-22T10:44:08.000Z</time>
      </trkpt>
      <trkpt lat="44.48528" lon="6.84898">
        <ele>2347</ele>
        <time>2013-08-22T10:44:16.000Z</time>
      </trkpt>
      <trkpt lat="44.48545" lon="6.84909">
        <ele>2347</ele>
        <time>2013-08-22T10:44:28.000Z</time>
      </trkpt>
      <trkpt lat="44.48561" lon="6.84925">
        <ele>2348</ele>
        <time>2013-08-22T10:44:40.000Z</time>
      </trkpt>
      <trkpt lat="44.48587" lon="6.84956">
        <ele>2346</ele>
        <time>2013-08-22T10:44:51.000Z</time>
      </trkpt>
      <trkpt lat="44.48609" lon="6.84946">
        <ele>2347</ele>
        <time>2013-08-22T10:45:02.000Z</time>
      </trkpt>
      <trkpt lat="44.48633" lon="6.84952">
        <ele>2348</ele>
        <time>2013-08-22T10:45:14.000Z</time>
      </trkpt>
      <trkpt lat="44.48653" lon="6.84954">
        <ele>2351</ele>
        <time>2013-08-22T10:45:25.000Z</time>
      </trkpt>
      <trkpt lat="44.48683" lon="6.84959">
        <ele>2351</ele>
        <time>2013-08-22T10:45:36.000Z</time>
      </trkpt>
      <trkpt lat="44.48694" lon="6.84959">
        <ele>2352</ele>
        <time>2013-08-22T10:45:55.000Z</time>
      </trkpt>
      <trkpt lat="44.48705" lon="6.8496">
        <ele>2353</ele>
        <time>2013-08-22T10:46:10.000Z</time>
      </trkpt>
      <trkpt lat="44.48717" lon="6.8496">
        <ele>2354</ele>
        <time>2013-08-22T10:46:23.000Z</time>
      </trkpt>
      <trkpt lat="44.48736" lon="6.84967">
        <ele>2355</ele>
        <time>2013-08-22T10:46:43.000Z</time>
      </trkpt>
      <trkpt lat="44.48749" lon="6.84977">
        <ele>2357</ele>
        <time>2013-08-22T10:47:00.000Z</time>
      </trkpt>
      <trkpt lat="44.48762" lon="6.84989">
        <ele>2355</ele>
        <time>2013-08-22T10:47:18.000Z</time>
      </trkpt>
      <trkpt lat="44.48766" lon="6.85005">
        <ele>2355</ele>
        <time>2013-08-22T10:47:54.000Z</time>
      </trkpt>
      <trkpt lat="44.48771" lon="6.85024">
        <ele>2354</ele>
        <time>2013-08-22T10:48:10.000Z</time>
      </trkpt>
      <trkpt lat="44.48772" lon="6.85034">
        <ele>2355</ele>
        <time>2013-08-22T10:48:19.000Z</time>
      </trkpt>
      <trkpt lat="44.48775" lon="6.85039">
        <ele>2356</ele>
        <time>2013-08-22T10:48:24.000Z</time>
      </trkpt>
      <trkpt lat="44.48781" lon="6.85045">
        <ele>2357</ele>
        <time>2013-08-22T10:48:32.000Z</time>
      </trkpt>
      <trkpt lat="44.48788" lon="6.85042">
        <ele>2358</ele>
        <time>2013-08-22T10:48:54.000Z</time>
      </trkpt>
      <trkpt lat="44.4879" lon="6.85037">
        <ele>2360</ele>
        <time>2013-08-22T10:49:01.000Z</time>
      </trkpt>
      <trkpt lat="44.48794" lon="6.85021">
        <ele>2361</ele>
        <time>2013-08-22T10:49:17.000Z</time>
      </trkpt>
      <trkpt lat="44.48798" lon="6.85011">
        <ele>2361</ele>
        <time>2013-08-22T10:49:25.000Z</time>
      </trkpt>
      <trkpt lat="44.48799" lon="6.85006">
        <ele>2361</ele>
        <time>2013-08-22T10:49:29.000Z</time>
      </trkpt>
      <trkpt lat="44.48809" lon="6.84986">
        <ele>2361</ele>
        <time>2013-08-22T10:49:48.000Z</time>
      </trkpt>
      <trkpt lat="44.48815" lon="6.84977">
        <ele>2363</ele>
        <time>2013-08-22T10:49:59.000Z</time>
      </trkpt>
      <trkpt lat="44.48824" lon="6.84964">
        <ele>2364</ele>
        <time>2013-08-22T10:50:14.000Z</time>
      </trkpt>
      <trkpt lat="44.48837" lon="6.84959">
        <ele>2364</ele>
        <time>2013-08-22T10:50:30.000Z</time>
      </trkpt>
      <trkpt lat="44.48855" lon="6.8495">
        <ele>2364</ele>
        <time>2013-08-22T10:50:51.000Z</time>
      </trkpt>
      <trkpt lat="44.48867" lon="6.84942">
        <ele>2367</ele>
        <time>2013-08-22T10:51:10.000Z</time>
      </trkpt>
      <trkpt lat="44.48877" lon="6.84941">
        <ele>2369</ele>
        <time>2013-08-22T10:51:25.000Z</time>
      </trkpt>
      <trkpt lat="44.48884" lon="6.84936">
        <ele>2371</ele>
        <time>2013-08-22T10:51:39.000Z</time>
      </trkpt>
      <trkpt lat="44.48895" lon="6.84929">
        <ele>2372</ele>
        <time>2013-08-22T10:52:10.000Z</time>
      </trkpt>
      <trkpt lat="44.48906" lon="6.8492">
        <ele>2372</ele>
        <time>2013-08-22T10:52:25.000Z</time>
      </trkpt>
      <trkpt lat="44.4891" lon="6.84918">
        <ele>2373</ele>
        <time>2013-08-22T10:52:37.000Z</time>
      </trkpt>
      <trkpt lat="44.48917" lon="6.84911">
        <ele>2374</ele>
        <time>2013-08-22T10:52:48.000Z</time>
      </trkpt>
      <trkpt lat="44.48926" lon="6.84904">
        <ele>2374</ele>
        <time>2013-08-22T10:53:02.000Z</time>
      </trkpt>
      <trkpt lat="44.48934" lon="6.84901">
        <ele>2376</ele>
        <time>2013-08-22T10:53:16.000Z</time>
      </trkpt>
      <trkpt lat="44.48944" lon="6.84899">
        <ele>2379</ele>
        <time>2013-08-22T10:53:32.000Z</time>
      </trkpt>
      <trkpt lat="44.48949" lon="6.84897">
        <ele>2381</ele>
        <time>2013-08-22T10:53:43.000Z</time>
      </trkpt>
      <trkpt lat="44.48955" lon="6.84897">
        <ele>2382</ele>
        <time>2013-08-22T10:53:55.000Z</time>
      </trkpt>
      <trkpt lat="44.48963" lon="6.84897">
        <ele>2382</ele>
        <time>2013-08-22T10:54:07.000Z</time>
      </trkpt>
      <trkpt lat="44.48972" lon="6.84903">
        <ele>2384</ele>
        <time>2013-08-22T10:54:22.000Z</time>
      </trkpt>
      <trkpt lat="44.4898" lon="6.84906">
        <ele>2386</ele>
        <time>2013-08-22T10:54:36.000Z</time>
      </trkpt>
      <trkpt lat="44.48988" lon="6.84911">
        <ele>2389</ele>
        <time>2013-08-22T10:54:52.000Z</time>
      </trkpt>
      <trkpt lat="44.48993" lon="6.84918">
        <ele>2391</ele>
        <time>2013-08-22T10:55:02.000Z</time>
      </trkpt>
      <trkpt lat="44.49001" lon="6.84929">
        <ele>2395</ele>
        <time>2013-08-22T10:55:19.000Z</time>
      </trkpt>
      <trkpt lat="44.49007" lon="6.84936">
        <ele>2397</ele>
        <time>2013-08-22T10:55:31.000Z</time>
      </trkpt>
      <trkpt lat="44.49043" lon="6.84941">
        <ele>2399</ele>
        <time>2013-08-22T10:57:23.000Z</time>
      </trkpt>
      <trkpt lat="44.49058" lon="6.84945">
        <ele>2400</ele>
        <time>2013-08-22T10:57:34.000Z</time>
      </trkpt>
      <trkpt lat="44.49079" lon="6.84958">
        <ele>2403</ele>
        <time>2013-08-22T10:57:50.000Z</time>
      </trkpt>
      <trkpt lat="44.49088" lon="6.84967">
        <ele>2404</ele>
        <time>2013-08-22T10:58:01.000Z</time>
      </trkpt>
      <trkpt lat="44.49095" lon="6.84974">
        <ele>2405</ele>
        <time>2013-08-22T10:58:10.000Z</time>
      </trkpt>
      <trkpt lat="44.49105" lon="6.84971">
        <ele>2406</ele>
        <time>2013-08-22T10:58:24.000Z</time>
      </trkpt>
      <trkpt lat="44.49112" lon="6.84973">
        <ele>2408</ele>
        <time>2013-08-22T10:58:34.000Z</time>
      </trkpt>
      <trkpt lat="44.49119" lon="6.84981">
        <ele>2409</ele>
        <time>2013-08-22T10:58:46.000Z</time>
      </trkpt>
      <trkpt lat="44.49134" lon="6.84997">
        <ele>2412</ele>
        <time>2013-08-22T10:59:00.000Z</time>
      </trkpt>
      <trkpt lat="44.49144" lon="6.85005">
        <ele>2414</ele>
        <time>2013-08-22T10:59:09.000Z</time>
      </trkpt>
      <trkpt lat="44.49155" lon="6.85011">
        <ele>2415</ele>
        <time>2013-08-22T10:59:19.000Z</time>
      </trkpt>
      <trkpt lat="44.49166" lon="6.85019">
        <ele>2415</ele>
        <time>2013-08-22T10:59:29.000Z</time>
      </trkpt>
      <trkpt lat="44.49177" lon="6.85026">
        <ele>2415</ele>
        <time>2013-08-22T10:59:37.000Z</time>
      </trkpt>
      <trkpt lat="44.49193" lon="6.85033">
        <ele>2417</ele>
        <time>2013-08-22T10:59:57.000Z</time>
      </trkpt>
      <trkpt lat="44.49199" lon="6.85033">
        <ele>2420</ele>
        <time>2013-08-22T11:00:10.000Z</time>
      </trkpt>
      <trkpt lat="44.49198" lon="6.85039">
        <ele>2421</ele>
        <time>2013-08-22T11:00:17.000Z</time>
      </trkpt>
      <trkpt lat="44.4919" lon="6.85054">
        <ele>2424</ele>
        <time>2013-08-22T11:00:32.000Z</time>
      </trkpt>
      <trkpt lat="44.49193" lon="6.85059">
        <ele>2425</ele>
        <time>2013-08-22T11:00:44.000Z</time>
      </trkpt>
      <trkpt lat="44.49195" lon="6.85062">
        <ele>2427</ele>
        <time>2013-08-22T11:00:53.000Z</time>
      </trkpt>
      <trkpt lat="44.49199" lon="6.85066">
        <ele>2428</ele>
        <time>2013-08-22T11:01:00.000Z</time>
      </trkpt>
      <trkpt lat="44.49206" lon="6.85072">
        <ele>2429</ele>
        <time>2013-08-22T11:01:13.000Z</time>
      </trkpt>
      <trkpt lat="44.49215" lon="6.85073">
        <ele>2431</ele>
        <time>2013-08-22T11:01:28.000Z</time>
      </trkpt>
      <trkpt lat="44.49221" lon="6.85071">
        <ele>2431</ele>
        <time>2013-08-22T11:01:37.000Z</time>
      </trkpt>
      <trkpt lat="44.49238" lon="6.85062">
        <ele>2431</ele>
        <time>2013-08-22T11:01:50.000Z</time>
      </trkpt>
      <trkpt lat="44.49255" lon="6.85059">
        <ele>2430</ele>
        <time>2013-08-22T11:02:00.000Z</time>
      </trkpt>
      <trkpt lat="44.49276" lon="6.85052">
        <ele>2432</ele>
        <time>2013-08-22T11:02:14.000Z</time>
      </trkpt>
      <trkpt lat="44.49284" lon="6.85049">
        <ele>2432</ele>
        <time>2013-08-22T11:02:20.000Z</time>
      </trkpt>
      <trkpt lat="44.49293" lon="6.8505">
        <ele>2432</ele>
        <time>2013-08-22T11:02:27.000Z</time>
      </trkpt>
      <trkpt lat="44.49311" lon="6.85056">
        <ele>2432</ele>
        <time>2013-08-22T11:02:39.000Z</time>
      </trkpt>
      <trkpt lat="44.49346" lon="6.85062">
        <ele>2432</ele>
        <time>2013-08-22T11:02:52.000Z</time>
      </trkpt>
      <trkpt lat="44.49375" lon="6.85058">
        <ele>2433</ele>
        <time>2013-08-22T11:03:06.000Z</time>
      </trkpt>
      <trkpt lat="44.49401" lon="6.85055">
        <ele>2435</ele>
        <time>2013-08-22T11:03:20.000Z</time>
      </trkpt>
      <trkpt lat="44.49434" lon="6.85053">
        <ele>2437</ele>
        <time>2013-08-22T11:03:38.000Z</time>
      </trkpt>
      <trkpt lat="44.49453" lon="6.85052">
        <ele>2439</ele>
        <time>2013-08-22T11:03:50.000Z</time>
      </trkpt>
      <trkpt lat="44.49464" lon="6.85054">
        <ele>2440</ele>
        <time>2013-08-22T11:03:57.000Z</time>
      </trkpt>
      <trkpt lat="44.49486" lon="6.85042">
        <ele>2442</ele>
        <time>2013-08-22T11:04:12.000Z</time>
      </trkpt>
      <trkpt lat="44.49503" lon="6.85031">
        <ele>2443</ele>
        <time>2013-08-22T11:04:25.000Z</time>
      </trkpt>
      <trkpt lat="44.49517" lon="6.85022">
        <ele>2447</ele>
        <time>2013-08-22T11:04:40.000Z</time>
      </trkpt>
      <trkpt lat="44.49521" lon="6.85014">
        <ele>2448</ele>
        <time>2013-08-22T11:04:50.000Z</time>
      </trkpt>
      <trkpt lat="44.4954" lon="6.85008">
        <ele>2448</ele>
        <time>2013-08-22T11:05:04.000Z</time>
      </trkpt>
      <trkpt lat="44.49562" lon="6.84997">
        <ele>2449</ele>
        <time>2013-08-22T11:05:19.000Z</time>
      </trkpt>
      <trkpt lat="44.49582" lon="6.84988">
        <ele>2451</ele>
        <time>2013-08-22T11:05:31.000Z</time>
      </trkpt>
      <trkpt lat="44.49604" lon="6.84986">
        <ele>2450</ele>
        <time>2013-08-22T11:05:37.000Z</time>
      </trkpt>
      <trkpt lat="44.49622" lon="6.84985">
        <ele>2450</ele>
        <time>2013-08-22T11:05:50.000Z</time>
      </trkpt>
      <trkpt lat="44.49642" lon="6.84979">
        <ele>2451</ele>
        <time>2013-08-22T11:06:05.000Z</time>
      </trkpt>
      <trkpt lat="44.49647" lon="6.84978">
        <ele>2452</ele>
        <time>2013-08-22T11:06:24.000Z</time>
      </trkpt>
      <trkpt lat="44.49652" lon="6.84976">
        <ele>2453</ele>
        <time>2013-08-22T11:06:31.000Z</time>
      </trkpt>
      <trkpt lat="44.49657" lon="6.84969">
        <ele>2454</ele>
        <time>2013-08-22T11:06:41.000Z</time>
      </trkpt>
      <trkpt lat="44.49661" lon="6.8496">
        <ele>2456</ele>
        <time>2013-08-22T11:06:53.000Z</time>
      </trkpt>
      <trkpt lat="44.4967" lon="6.84957">
        <ele>2458</ele>
        <time>2013-08-22T11:07:03.000Z</time>
      </trkpt>
      <trkpt lat="44.49677" lon="6.84955">
        <ele>2460</ele>
        <time>2013-08-22T11:07:13.000Z</time>
      </trkpt>
      <trkpt lat="44.49692" lon="6.84923">
        <ele>2467</ele>
        <time>2013-08-22T11:08:00.000Z</time>
      </trkpt>
      <trkpt lat="44.49697" lon="6.84919">
        <ele>2468</ele>
        <time>2013-08-22T11:08:06.000Z</time>
      </trkpt>
      <trkpt lat="44.49709" lon="6.84906">
        <ele>2469</ele>
        <time>2013-08-22T11:08:22.000Z</time>
      </trkpt>
      <trkpt lat="44.49716" lon="6.84902">
        <ele>2470</ele>
        <time>2013-08-22T11:08:33.000Z</time>
      </trkpt>
      <trkpt lat="44.49724" lon="6.84898">
        <ele>2472</ele>
        <time>2013-08-22T11:08:47.000Z</time>
      </trkpt>
      <trkpt lat="44.49731" lon="6.84895">
        <ele>2473</ele>
        <time>2013-08-22T11:08:56.000Z</time>
      </trkpt>
      <trkpt lat="44.49736" lon="6.84896">
        <ele>2473</ele>
        <time>2013-08-22T11:09:07.000Z</time>
      </trkpt>
      <trkpt lat="44.49745" lon="6.84906">
        <ele>2475</ele>
        <time>2013-08-22T11:13:46.000Z</time>
      </trkpt>
      <trkpt lat="44.49747" lon="6.84903">
        <ele>2475</ele>
        <time>2013-08-22T11:13:56.000Z</time>
      </trkpt>
      <trkpt lat="44.49745" lon="6.84894">
        <ele>2475</ele>
        <time>2013-08-22T11:14:06.000Z</time>
      </trkpt>
      <trkpt lat="44.49752" lon="6.84878">
        <ele>2475</ele>
        <time>2013-08-22T11:14:16.000Z</time>
      </trkpt>
      <trkpt lat="44.49763" lon="6.84852">
        <ele>2475</ele>
        <time>2013-08-22T11:14:29.000Z</time>
      </trkpt>
      <trkpt lat="44.49775" lon="6.84828">
        <ele>2476</ele>
        <time>2013-08-22T11:14:43.000Z</time>
      </trkpt>
      <trkpt lat="44.49773" lon="6.84809">
        <ele>2478</ele>
        <time>2013-08-22T11:14:53.000Z</time>
      </trkpt>
      <trkpt lat="44.49762" lon="6.84797">
        <ele>2479</ele>
        <time>2013-08-22T11:15:06.000Z</time>
      </trkpt>
      <trkpt lat="44.4976" lon="6.8476">
        <ele>2479</ele>
        <time>2013-08-22T11:15:17.000Z</time>
      </trkpt>
      <trkpt lat="44.49752" lon="6.84727">
        <ele>2479</ele>
        <time>2013-08-22T11:15:30.000Z</time>
      </trkpt>
      <trkpt lat="44.4975" lon="6.84697">
        <ele>2483</ele>
        <time>2013-08-22T11:15:44.000Z</time>
      </trkpt>
      <trkpt lat="44.49756" lon="6.84682">
        <ele>2486</ele>
        <time>2013-08-22T11:16:02.000Z</time>
      </trkpt>
      <trkpt lat="44.49757" lon="6.84678">
        <ele>2487</ele>
        <time>2013-08-22T11:17:03.000Z</time>
      </trkpt>
      <trkpt lat="44.49768" lon="6.84667">
        <ele>2488</ele>
        <time>2013-08-22T11:17:17.000Z</time>
      </trkpt>
      <trkpt lat="44.49779" lon="6.84661">
        <ele>2490</ele>
        <time>2013-08-22T11:17:30.000Z</time>
      </trkpt>
      <trkpt lat="44.49788" lon="6.84657">
        <ele>2491</ele>
        <time>2013-08-22T11:17:43.000Z</time>
      </trkpt>
      <trkpt lat="44.49794" lon="6.84654">
        <ele>2492</ele>
        <time>2013-08-22T11:17:51.000Z</time>
      </trkpt>
      <trkpt lat="44.49799" lon="6.84649">
        <ele>2494</ele>
        <time>2013-08-22T11:18:02.000Z</time>
      </trkpt>
      <trkpt lat="44.4981" lon="6.84639">
        <ele>2497</ele>
        <time>2013-08-22T11:18:23.000Z</time>
      </trkpt>
      <trkpt lat="44.49822" lon="6.84638">
        <ele>2498</ele>
        <time>2013-08-22T11:18:39.000Z</time>
      </trkpt>
      <trkpt lat="44.49839" lon="6.84638">
        <ele>2499</ele>
        <time>2013-08-22T11:18:54.000Z</time>
      </trkpt>
      <trkpt lat="44.49859" lon="6.8464">
        <ele>2502</ele>
        <time>2013-08-22T11:19:10.000Z</time>
      </trkpt>
      <trkpt lat="44.49888" lon="6.84649">
        <ele>2503</ele>
        <time>2013-08-22T11:19:26.000Z</time>
      </trkpt>
      <trkpt lat="44.49903" lon="6.84653">
        <ele>2504</ele>
        <time>2013-08-22T11:19:38.000Z</time>
      </trkpt>
      <trkpt lat="44.49919" lon="6.84657">
        <ele>2504</ele>
        <time>2013-08-22T11:19:49.000Z</time>
      </trkpt>
      <trkpt lat="44.49932" lon="6.8466">
        <ele>2505</ele>
        <time>2013-08-22T11:19:57.000Z</time>
      </trkpt>
      <trkpt lat="44.49936" lon="6.84655">
        <ele>2505</ele>
        <time>2013-08-22T11:20:05.000Z</time>
      </trkpt>
      <trkpt lat="44.49941" lon="6.84653">
        <ele>2505</ele>
        <time>2013-08-22T11:20:11.000Z</time>
      </trkpt>
      <trkpt lat="44.49957" lon="6.84662">
        <ele>2507</ele>
        <time>2013-08-22T11:20:25.000Z</time>
      </trkpt>
      <trkpt lat="44.49961" lon="6.84664">
        <ele>2509</ele>
        <time>2013-08-22T11:20:36.000Z</time>
      </trkpt>
      <trkpt lat="44.49965" lon="6.84665">
        <ele>2511</ele>
        <time>2013-08-22T11:20:49.000Z</time>
      </trkpt>
      <trkpt lat="44.49964" lon="6.84667">
        <ele>2513</ele>
        <time>2013-08-22T11:21:07.000Z</time>
      </trkpt>
      <trkpt lat="44.49958" lon="6.84671">
        <ele>2516</ele>
        <time>2013-08-22T11:21:53.000Z</time>
      </trkpt>
      <trkpt lat="44.49969" lon="6.84673">
        <ele>2518</ele>
        <time>2013-08-22T11:22:05.000Z</time>
      </trkpt>
      <trkpt lat="44.49979" lon="6.84669">
        <ele>2520</ele>
        <time>2013-08-22T11:22:17.000Z</time>
      </trkpt>
      <trkpt lat="44.49986" lon="6.84666">
        <ele>2521</ele>
        <time>2013-08-22T11:22:26.000Z</time>
      </trkpt>
      <trkpt lat="44.49995" lon="6.84662">
        <ele>2522</ele>
        <time>2013-08-22T11:22:39.000Z</time>
      </trkpt>
      <trkpt lat="44.49992" lon="6.84654">
        <ele>2523</ele>
        <time>2013-08-22T11:22:55.000Z</time>
      </trkpt>
      <trkpt lat="44.49999" lon="6.84647">
        <ele>2524</ele>
        <time>2013-08-22T11:24:02.000Z</time>
      </trkpt>
      <trkpt lat="44.50003" lon="6.84641">
        <ele>2523</ele>
        <time>2013-08-22T11:24:11.000Z</time>
      </trkpt>
      <trkpt lat="44.50005" lon="6.84623">
        <ele>2522</ele>
        <time>2013-08-22T11:24:19.000Z</time>
      </trkpt>
      <trkpt lat="44.5" lon="6.84598">
        <ele>2519</ele>
        <time>2013-08-22T11:24:29.000Z</time>
      </trkpt>
      <trkpt lat="44.50013" lon="6.84612">
        <ele>2516</ele>
        <time>2013-08-22T11:59:03.000Z</time>
      </trkpt>
      <trkpt lat="44.50019" lon="6.8461">
        <ele>2515</ele>
        <time>2013-08-22T11:59:32.000Z</time>
      </trkpt>
      <trkpt lat="44.50021" lon="6.84607">
        <ele>2516</ele>
        <time>2013-08-22T12:01:01.000Z</time>
      </trkpt>
      <trkpt lat="44.50036" lon="6.84587">
        <ele>2516</ele>
        <time>2013-08-22T12:01:12.000Z</time>
      </trkpt>
      <trkpt lat="44.50044" lon="6.84552">
        <ele>2515</ele>
        <time>2013-08-22T12:01:24.000Z</time>
      </trkpt>
      <trkpt lat="44.50064" lon="6.84534">
        <ele>2513</ele>
        <time>2013-08-22T12:01:33.000Z</time>
      </trkpt>
      <trkpt lat="44.50082" lon="6.84506">
        <ele>2509</ele>
        <time>2013-08-22T12:01:41.000Z</time>
      </trkpt>
      <trkpt lat="44.50096" lon="6.84451">
        <ele>2505</ele>
        <time>2013-08-22T12:01:51.000Z</time>
      </trkpt>
      <trkpt lat="44.50104" lon="6.84401">
        <ele>2501</ele>
        <time>2013-08-22T12:02:01.000Z</time>
      </trkpt>
      <trkpt lat="44.50103" lon="6.84385">
        <ele>2499</ele>
        <time>2013-08-22T12:02:08.000Z</time>
      </trkpt>
      <trkpt lat="44.50107" lon="6.84359">
        <ele>2496</ele>
        <time>2013-08-22T12:02:55.000Z</time>
      </trkpt>
      <trkpt lat="44.50111" lon="6.84314">
        <ele>2493</ele>
        <time>2013-08-22T12:03:06.000Z</time>
      </trkpt>
      <trkpt lat="44.50107" lon="6.84274">
        <ele>2491</ele>
        <time>2013-08-22T12:03:14.000Z</time>
      </trkpt>
      <trkpt lat="44.50096" lon="6.84217">
        <ele>2485</ele>
        <time>2013-08-22T12:03:25.000Z</time>
      </trkpt>
      <trkpt lat="44.50089" lon="6.84191">
        <ele>2483</ele>
        <time>2013-08-22T12:03:34.000Z</time>
      </trkpt>
      <trkpt lat="44.50071" lon="6.84157">
        <ele>2483</ele>
        <time>2013-08-22T12:03:49.000Z</time>
      </trkpt>
      <trkpt lat="44.50062" lon="6.84134">
        <ele>2482</ele>
        <time>2013-08-22T12:03:56.000Z</time>
      </trkpt>
      <trkpt lat="44.50059" lon="6.8412">
        <ele>2481</ele>
        <time>2013-08-22T12:04:03.000Z</time>
      </trkpt>
      <trkpt lat="44.50071" lon="6.84095">
        <ele>2476</ele>
        <time>2013-08-22T12:04:14.000Z</time>
      </trkpt>
      <trkpt lat="44.50075" lon="6.84084">
        <ele>2473</ele>
        <time>2013-08-22T12:04:21.000Z</time>
      </trkpt>
      <trkpt lat="44.50082" lon="6.8407">
        <ele>2467</ele>
        <time>2013-08-22T12:04:29.000Z</time>
      </trkpt>
      <trkpt lat="44.50085" lon="6.8405">
        <ele>2462</ele>
        <time>2013-08-22T12:04:37.000Z</time>
      </trkpt>
      <trkpt lat="44.50092" lon="6.84015">
        <ele>2456</ele>
        <time>2013-08-22T12:04:48.000Z</time>
      </trkpt>
      <trkpt lat="44.50096" lon="6.83985">
        <ele>2453</ele>
        <time>2013-08-22T12:04:59.000Z</time>
      </trkpt>
      <trkpt lat="44.50098" lon="6.83959">
        <ele>2451</ele>
        <time>2013-08-22T12:05:08.000Z</time>
      </trkpt>
      <trkpt lat="44.50103" lon="6.83948">
        <ele>2450</ele>
        <time>2013-08-22T12:05:15.000Z</time>
      </trkpt>
      <trkpt lat="44.50107" lon="6.83937">
        <ele>2448</ele>
        <time>2013-08-22T12:06:00.000Z</time>
      </trkpt>
      <trkpt lat="44.50109" lon="6.83928">
        <ele>2448</ele>
        <time>2013-08-22T12:06:07.000Z</time>
      </trkpt>
      <trkpt lat="44.50113" lon="6.83915">
        <ele>2447</ele>
        <time>2013-08-22T12:06:14.000Z</time>
      </trkpt>
      <trkpt lat="44.50115" lon="6.83911">
        <ele>2446</ele>
        <time>2013-08-22T12:06:18.000Z</time>
      </trkpt>
      <trkpt lat="44.50118" lon="6.83894">
        <ele>2447</ele>
        <time>2013-08-22T12:06:32.000Z</time>
      </trkpt>
      <trkpt lat="44.50121" lon="6.83883">
        <ele>2448</ele>
        <time>2013-08-22T12:06:42.000Z</time>
      </trkpt>
      <trkpt lat="44.50123" lon="6.83872">
        <ele>2448</ele>
        <time>2013-08-22T12:06:54.000Z</time>
      </trkpt>
      <trkpt lat="44.50123" lon="6.83857">
        <ele>2447</ele>
        <time>2013-08-22T12:07:06.000Z</time>
      </trkpt>
      <trkpt lat="44.50123" lon="6.83847">
        <ele>2447</ele>
        <time>2013-08-22T12:07:16.000Z</time>
      </trkpt>
      <trkpt lat="44.5012" lon="6.83837">
        <ele>2447</ele>
        <time>2013-08-22T12:07:25.000Z</time>
      </trkpt>
      <trkpt lat="44.50104" lon="6.83812">
        <ele>2444</ele>
        <time>2013-08-22T12:07:36.000Z</time>
      </trkpt>
      <trkpt lat="44.50099" lon="6.83816">
        <ele>2442</ele>
        <time>2013-08-22T12:08:39.000Z</time>
      </trkpt>
      <trkpt lat="44.50093" lon="6.83806">
        <ele>2440</ele>
        <time>2013-08-22T12:08:51.000Z</time>
      </trkpt>
      <trkpt lat="44.50086" lon="6.83791">
        <ele>2436</ele>
        <time>2013-08-22T12:09:00.000Z</time>
      </trkpt>
      <trkpt lat="44.50083" lon="6.83788">
        <ele>2434</ele>
        <time>2013-08-22T12:09:08.000Z</time>
      </trkpt>
      <trkpt lat="44.50082" lon="6.8377">
        <ele>2430</ele>
        <time>2013-08-22T12:09:26.000Z</time>
      </trkpt>
      <trkpt lat="44.50082" lon="6.83757">
        <ele>2430</ele>
        <time>2013-08-22T12:09:37.000Z</time>
      </trkpt>
      <trkpt lat="44.50084" lon="6.83738">
        <ele>2429</ele>
        <time>2013-08-22T12:09:52.000Z</time>
      </trkpt>
      <trkpt lat="44.50086" lon="6.83722">
        <ele>2428</ele>
        <time>2013-08-22T12:10:08.000Z</time>
      </trkpt>
      <trkpt lat="44.50085" lon="6.83717">
        <ele>2427</ele>
        <time>2013-08-22T12:10:15.000Z</time>
      </trkpt>
      <trkpt lat="44.50081" lon="6.83693">
        <ele>2426</ele>
        <time>2013-08-22T12:10:27.000Z</time>
      </trkpt>
      <trkpt lat="44.50078" lon="6.83679">
        <ele>2426</ele>
        <time>2013-08-22T12:10:38.000Z</time>
      </trkpt>
      <trkpt lat="44.50075" lon="6.83668">
        <ele>2425</ele>
        <time>2013-08-22T12:10:48.000Z</time>
      </trkpt>
      <trkpt lat="44.50075" lon="6.8367">
        <ele>2425</ele>
        <time>2013-08-22T12:11:26.000Z</time>
      </trkpt>
      <trkpt lat="44.50072" lon="6.83659">
        <ele>2424</ele>
        <time>2013-08-22T12:11:34.000Z</time>
      </trkpt>
      <trkpt lat="44.50065" lon="6.83647">
        <ele>2420</ele>
        <time>2013-08-22T12:11:42.000Z</time>
      </trkpt>
      <trkpt lat="44.50063" lon="6.83643">
        <ele>2416</ele>
        <time>2013-08-22T12:11:51.000Z</time>
      </trkpt>
      <trkpt lat="44.5006" lon="6.83637">
        <ele>2415</ele>
        <time>2013-08-22T12:11:59.000Z</time>
      </trkpt>
      <trkpt lat="44.50056" lon="6.83631">
        <ele>2414</ele>
        <time>2013-08-22T12:12:19.000Z</time>
      </trkpt>
      <trkpt lat="44.50048" lon="6.83614">
        <ele>2409</ele>
        <time>2013-08-22T12:12:27.000Z</time>
      </trkpt>
      <trkpt lat="44.50043" lon="6.83608">
        <ele>2406</ele>
        <time>2013-08-22T12:12:34.000Z</time>
      </trkpt>
      <trkpt lat="44.5004" lon="6.83604">
        <ele>2404</ele>
        <time>2013-08-22T12:12:46.000Z</time>
      </trkpt>
      <trkpt lat="44.50035" lon="6.836">
        <ele>2401</ele>
        <time>2013-08-22T12:13:15.000Z</time>
      </trkpt>
      <trkpt lat="44.50036" lon="6.83584">
        <ele>2399</ele>
        <time>2013-08-22T12:13:24.000Z</time>
      </trkpt>
      <trkpt lat="44.50047" lon="6.83563">
        <ele>2398</ele>
        <time>2013-08-22T12:13:51.000Z</time>
      </trkpt>
      <trkpt lat="44.50067" lon="6.83527">
        <ele>2392</ele>
        <time>2013-08-22T12:14:00.000Z</time>
      </trkpt>
      <trkpt lat="44.50078" lon="6.83513">
        <ele>2385</ele>
        <time>2013-08-22T12:14:09.000Z</time>
      </trkpt>
      <trkpt lat="44.50083" lon="6.83516">
        <ele>2384</ele>
        <time>2013-08-22T12:16:03.000Z</time>
      </trkpt>
      <trkpt lat="44.50094" lon="6.83515">
        <ele>2383</ele>
        <time>2013-08-22T12:16:14.000Z</time>
      </trkpt>
      <trkpt lat="44.50118" lon="6.83513">
        <ele>2375</ele>
        <time>2013-08-22T12:16:22.000Z</time>
      </trkpt>
      <trkpt lat="44.50135" lon="6.83515">
        <ele>2369</ele>
        <time>2013-08-22T12:16:28.000Z</time>
      </trkpt>
      <trkpt lat="44.50152" lon="6.83512">
        <ele>2366</ele>
        <time>2013-08-22T12:16:33.000Z</time>
      </trkpt>
      <trkpt lat="44.50177" lon="6.83502">
        <ele>2360</ele>
        <time>2013-08-22T12:16:40.000Z</time>
      </trkpt>
      <trkpt lat="44.50199" lon="6.83456">
        <ele>2355</ele>
        <time>2013-08-22T12:16:49.000Z</time>
      </trkpt>
      <trkpt lat="44.50217" lon="6.83419">
        <ele>2350</ele>
        <time>2013-08-22T12:16:56.000Z</time>
      </trkpt>
      <trkpt lat="44.50234" lon="6.83396">
        <ele>2348</ele>
        <time>2013-08-22T12:17:03.000Z</time>
      </trkpt>
      <trkpt lat="44.50248" lon="6.83356">
        <ele>2345</ele>
        <time>2013-08-22T12:17:09.000Z</time>
      </trkpt>
      <trkpt lat="44.50265" lon="6.83316">
        <ele>2338</ele>
        <time>2013-08-22T12:17:17.000Z</time>
      </trkpt>
      <trkpt lat="44.50275" lon="6.83312">
        <ele>2333</ele>
        <time>2013-08-22T12:18:35.000Z</time>
      </trkpt>
      <trkpt lat="44.50295" lon="6.83303">
        <ele>2330</ele>
        <time>2013-08-22T12:18:45.000Z</time>
      </trkpt>
      <trkpt lat="44.50322" lon="6.8329">
        <ele>2323</ele>
        <time>2013-08-22T12:18:53.000Z</time>
      </trkpt>
      <trkpt lat="44.50331" lon="6.83279">
        <ele>2320</ele>
        <time>2013-08-22T12:18:58.000Z</time>
      </trkpt>
      <trkpt lat="44.50364" lon="6.8325">
        <ele>2311</ele>
        <time>2013-08-22T12:19:08.000Z</time>
      </trkpt>
      <trkpt lat="44.50383" lon="6.83213">
        <ele>2303</ele>
        <time>2013-08-22T12:19:16.000Z</time>
      </trkpt>
      <trkpt lat="44.50413" lon="6.8317">
        <ele>2292</ele>
        <time>2013-08-22T12:19:26.000Z</time>
      </trkpt>
      <trkpt lat="44.50426" lon="6.83149">
        <ele>2289</ele>
        <time>2013-08-22T12:19:31.000Z</time>
      </trkpt>
      <trkpt lat="44.50448" lon="6.83109">
        <ele>2277</ele>
        <time>2013-08-22T12:19:41.000Z</time>
      </trkpt>
      <trkpt lat="44.50458" lon="6.83097">
        <ele>2273</ele>
        <time>2013-08-22T12:19:45.000Z</time>
      </trkpt>
      <trkpt lat="44.50485" lon="6.83088">
        <ele>2267</ele>
        <time>2013-08-22T12:19:52.000Z</time>
      </trkpt>
      <trkpt lat="44.50503" lon="6.83085">
        <ele>2263</ele>
        <time>2013-08-22T12:19:58.000Z</time>
      </trkpt>
      <trkpt lat="44.50508" lon="6.83089">
        <ele>2258</ele>
        <time>2013-08-22T12:20:55.000Z</time>
      </trkpt>
      <trkpt lat="44.50534" lon="6.83067">
        <ele>2256</ele>
        <time>2013-08-22T12:21:01.000Z</time>
      </trkpt>
      <trkpt lat="44.50561" lon="6.83042">
        <ele>2245</ele>
        <time>2013-08-22T12:21:09.000Z</time>
      </trkpt>
      <trkpt lat="44.50563" lon="6.8303">
        <ele>2241</ele>
        <time>2013-08-22T12:21:15.000Z</time>
      </trkpt>
      <trkpt lat="44.50572" lon="6.83012">
        <ele>2239</ele>
        <time>2013-08-22T12:21:20.000Z</time>
      </trkpt>
      <trkpt lat="44.50577" lon="6.8299">
        <ele>2237</ele>
        <time>2013-08-22T12:21:26.000Z</time>
      </trkpt>
      <trkpt lat="44.50584" lon="6.8296">
        <ele>2235</ele>
        <time>2013-08-22T12:21:48.000Z</time>
      </trkpt>
      <trkpt lat="44.50608" lon="6.82925">
        <ele>2231</ele>
        <time>2013-08-22T12:21:55.000Z</time>
      </trkpt>
      <trkpt lat="44.50633" lon="6.82912">
        <ele>2227</ele>
        <time>2013-08-22T12:22:00.000Z</time>
      </trkpt>
      <trkpt lat="44.5068" lon="6.82889">
        <ele>2220</ele>
        <time>2013-08-22T12:22:10.000Z</time>
      </trkpt>
      <trkpt lat="44.50698" lon="6.82884">
        <ele>2218</ele>
        <time>2013-08-22T12:22:15.000Z</time>
      </trkpt>
      <trkpt lat="44.50718" lon="6.82856">
        <ele>2216</ele>
        <time>2013-08-22T12:22:23.000Z</time>
      </trkpt>
      <trkpt lat="44.50732" lon="6.82836">
        <ele>2214</ele>
        <time>2013-08-22T12:22:29.000Z</time>
      </trkpt>
      <trkpt lat="44.50753" lon="6.82805">
        <ele>2210</ele>
        <time>2013-08-22T12:22:37.000Z</time>
      </trkpt>
      <trkpt lat="44.50756" lon="6.82804">
        <ele>2208</ele>
        <time>2013-08-22T12:22:41.000Z</time>
      </trkpt>
      <trkpt lat="44.50771" lon="6.82781">
        <ele>2206</ele>
        <time>2013-08-22T12:23:41.000Z</time>
      </trkpt>
      <trkpt lat="44.50799" lon="6.8275">
        <ele>2203</ele>
        <time>2013-08-22T12:23:48.000Z</time>
      </trkpt>
      <trkpt lat="44.50823" lon="6.82726">
        <ele>2200</ele>
        <time>2013-08-22T12:23:55.000Z</time>
      </trkpt>
      <trkpt lat="44.50839" lon="6.82719">
        <ele>2197</ele>
        <time>2013-08-22T12:24:00.000Z</time>
      </trkpt>
      <trkpt lat="44.50861" lon="6.82697">
        <ele>2195</ele>
        <time>2013-08-22T12:24:06.000Z</time>
      </trkpt>
      <trkpt lat="44.50888" lon="6.8266">
        <ele>2191</ele>
        <time>2013-08-22T12:24:14.000Z</time>
      </trkpt>
      <trkpt lat="44.50899" lon="6.82639">
        <ele>2187</ele>
        <time>2013-08-22T12:24:20.000Z</time>
      </trkpt>
      <trkpt lat="44.50896" lon="6.82633">
        <ele>2184</ele>
        <time>2013-08-22T12:24:28.000Z</time>
      </trkpt>
      <trkpt lat="44.50901" lon="6.8262">
        <ele>2184</ele>
        <time>2013-08-22T12:24:39.000Z</time>
      </trkpt>
      <trkpt lat="44.50905" lon="6.82611">
        <ele>2183</ele>
        <time>2013-08-22T12:24:44.000Z</time>
      </trkpt>
      <trkpt lat="44.50912" lon="6.82612">
        <ele>2181</ele>
        <time>2013-08-22T12:24:50.000Z</time>
      </trkpt>
      <trkpt lat="44.50918" lon="6.82607">
        <ele>2180</ele>
        <time>2013-08-22T12:24:56.000Z</time>
      </trkpt>
      <trkpt lat="44.50929" lon="6.82598">
        <ele>2178</ele>
        <time>2013-08-22T12:25:02.000Z</time>
      </trkpt>
      <trkpt lat="44.50943" lon="6.82569">
        <ele>2175</ele>
        <time>2013-08-22T12:25:08.000Z</time>
      </trkpt>
      <trkpt lat="44.50954" lon="6.82532">
        <ele>2170</ele>
        <time>2013-08-22T12:25:16.000Z</time>
      </trkpt>
      <trkpt lat="44.50974" lon="6.82504">
        <ele>2164</ele>
        <time>2013-08-22T12:25:23.000Z</time>
      </trkpt>
      <trkpt lat="44.50996" lon="6.82491">
        <ele>2159</ele>
        <time>2013-08-22T12:25:30.000Z</time>
      </trkpt>
      <trkpt lat="44.51017" lon="6.82487">
        <ele>2153</ele>
        <time>2013-08-22T12:25:37.000Z</time>
      </trkpt>
      <trkpt lat="44.5103" lon="6.82477">
        <ele>2149</ele>
        <time>2013-08-22T12:25:45.000Z</time>
      </trkpt>
      <trkpt lat="44.51054" lon="6.82474">
        <ele>2146</ele>
        <time>2013-08-22T12:25:53.000Z</time>
      </trkpt>
      <trkpt lat="44.51067" lon="6.8246">
        <ele>2142</ele>
        <time>2013-08-22T12:26:00.000Z</time>
      </trkpt>
      <trkpt lat="44.5108" lon="6.8244">
        <ele>2140</ele>
        <time>2013-08-22T12:26:06.000Z</time>
      </trkpt>
      <trkpt lat="44.51099" lon="6.82429">
        <ele>2138</ele>
        <time>2013-08-22T12:26:11.000Z</time>
      </trkpt>
      <trkpt lat="44.51126" lon="6.82412">
        <ele>2135</ele>
        <time>2013-08-22T12:26:17.000Z</time>
      </trkpt>
      <trkpt lat="44.51146" lon="6.82372">
        <ele>2130</ele>
        <time>2013-08-22T12:26:25.000Z</time>
      </trkpt>
      <trkpt lat="44.51162" lon="6.82338">
        <ele>2127</ele>
        <time>2013-08-22T12:26:31.000Z</time>
      </trkpt>
      <trkpt lat="44.5119" lon="6.82287">
        <ele>2124</ele>
        <time>2013-08-22T12:26:39.000Z</time>
      </trkpt>
      <trkpt lat="44.512" lon="6.82259">
        <ele>2124</ele>
        <time>2013-08-22T12:26:44.000Z</time>
      </trkpt>
      <trkpt lat="44.51219" lon="6.82228">
        <ele>2123</ele>
        <time>2013-08-22T12:26:50.000Z</time>
      </trkpt>
      <trkpt lat="44.51242" lon="6.82189">
        <ele>2122</ele>
        <time>2013-08-22T12:26:57.000Z</time>
      </trkpt>
      <trkpt lat="44.51265" lon="6.82153">
        <ele>2119</ele>
        <time>2013-08-22T12:27:04.000Z</time>
      </trkpt>
      <trkpt lat="44.51289" lon="6.82125">
        <ele>2116</ele>
        <time>2013-08-22T12:27:11.000Z</time>
      </trkpt>
      <trkpt lat="44.51311" lon="6.82071">
        <ele>2112</ele>
        <time>2013-08-22T12:27:19.000Z</time>
      </trkpt>
      <trkpt lat="44.51327" lon="6.82025">
        <ele>2110</ele>
        <time>2013-08-22T12:27:27.000Z</time>
      </trkpt>
      <trkpt lat="44.51344" lon="6.81979">
        <ele>2108</ele>
        <time>2013-08-22T12:27:33.000Z</time>
      </trkpt>
      <trkpt lat="44.5137" lon="6.81947">
        <ele>2106</ele>
        <time>2013-08-22T12:27:40.000Z</time>
      </trkpt>
      <trkpt lat="44.51371" lon="6.81954">
        <ele>2105</ele>
        <time>2013-08-22T12:27:45.000Z</time>
      </trkpt>
      <trkpt lat="44.51373" lon="6.81948">
        <ele>2104</ele>
        <time>2013-08-22T12:28:25.000Z</time>
      </trkpt>
      <trkpt lat="44.51387" lon="6.81934">
        <ele>2105</ele>
        <time>2013-08-22T12:28:32.000Z</time>
      </trkpt>
      <trkpt lat="44.51433" lon="6.81917">
        <ele>2104</ele>
        <time>2013-08-22T12:28:43.000Z</time>
      </trkpt>
      <trkpt lat="44.51482" lon="6.81882">
        <ele>2102</ele>
        <time>2013-08-22T12:28:54.000Z</time>
      </trkpt>
      <trkpt lat="44.51514" lon="6.81868">
        <ele>2100</ele>
        <time>2013-08-22T12:29:03.000Z</time>
      </trkpt>
      <trkpt lat="44.5153" lon="6.81852">
        <ele>2098</ele>
        <time>2013-08-22T12:29:10.000Z</time>
      </trkpt>
      <trkpt lat="44.51532" lon="6.81864">
        <ele>2093</ele>
        <time>2013-08-22T12:35:51.000Z</time>
      </trkpt>
      <trkpt lat="44.51545" lon="6.81853">
        <ele>2092</ele>
        <time>2013-08-22T12:35:54.000Z</time>
      </trkpt>
      <trkpt lat="44.51589" lon="6.81812">
        <ele>2091</ele>
        <time>2013-08-22T12:36:04.000Z</time>
      </trkpt>
      <trkpt lat="44.51638" lon="6.81766">
        <ele>2088</ele>
        <time>2013-08-22T12:36:13.000Z</time>
      </trkpt>
      <trkpt lat="44.51699" lon="6.81696">
        <ele>2082</ele>
        <time>2013-08-22T12:36:23.000Z</time>
      </trkpt>
      <trkpt lat="44.51733" lon="6.81658">
        <ele>2078</ele>
        <time>2013-08-22T12:36:29.000Z</time>
      </trkpt>
      <trkpt lat="44.51757" lon="6.81603">
        <ele>2071</ele>
        <time>2013-08-22T12:36:38.000Z</time>
      </trkpt>
      <trkpt lat="44.51763" lon="6.81572">
        <ele>2069</ele>
        <time>2013-08-22T12:36:47.000Z</time>
      </trkpt>
      <trkpt lat="44.51769" lon="6.81548">
        <ele>2068</ele>
        <time>2013-08-22T12:36:53.000Z</time>
      </trkpt>
      <trkpt lat="44.5179" lon="6.81523">
        <ele>2067</ele>
        <time>2013-08-22T12:37:02.000Z</time>
      </trkpt>
      <trkpt lat="44.51807" lon="6.81493">
        <ele>2064</ele>
        <time>2013-08-22T12:37:07.000Z</time>
      </trkpt>
      <trkpt lat="44.51854" lon="6.81385">
        <ele>2054</ele>
        <time>2013-08-22T12:37:19.000Z</time>
      </trkpt>
      <trkpt lat="44.51879" lon="6.81344">
        <ele>2048</ele>
        <time>2013-08-22T12:37:25.000Z</time>
      </trkpt>
      <trkpt lat="44.51905" lon="6.81298">
        <ele>2043</ele>
        <time>2013-08-22T12:37:32.000Z</time>
      </trkpt>
      <trkpt lat="44.51918" lon="6.8126">
        <ele>2040</ele>
        <time>2013-08-22T12:37:39.000Z</time>
      </trkpt>
      <trkpt lat="44.5195" lon="6.81214">
        <ele>2038</ele>
        <time>2013-08-22T12:37:50.000Z</time>
      </trkpt>
      <trkpt lat="44.51983" lon="6.81164">
        <ele>2036</ele>
        <time>2013-08-22T12:37:59.000Z</time>
      </trkpt>
      <trkpt lat="44.52016" lon="6.81121">
        <ele>2034</ele>
        <time>2013-08-22T12:38:06.000Z</time>
      </trkpt>
      <trkpt lat="44.52072" lon="6.81076">
        <ele>2028</ele>
        <time>2013-08-22T12:38:15.000Z</time>
      </trkpt>
      <trkpt lat="44.52115" lon="6.81031">
        <ele>2021</ele>
        <time>2013-08-22T12:38:21.000Z</time>
      </trkpt>
      <trkpt lat="44.52152" lon="6.80963">
        <ele>2011</ele>
        <time>2013-08-22T12:38:28.000Z</time>
      </trkpt>
      <trkpt lat="44.52191" lon="6.80888">
        <ele>2003</ele>
        <time>2013-08-22T12:38:36.000Z</time>
      </trkpt>
      <trkpt lat="44.52216" lon="6.80822">
        <ele>1995</ele>
        <time>2013-08-22T12:38:43.000Z</time>
      </trkpt>
      <trkpt lat="44.52231" lon="6.80764">
        <ele>1988</ele>
        <time>2013-08-22T12:38:50.000Z</time>
      </trkpt>
      <trkpt lat="44.52242" lon="6.80754">
        <ele>1984</ele>
        <time>2013-08-22T12:38:55.000Z</time>
      </trkpt>
      <trkpt lat="44.52262" lon="6.80757">
        <ele>1983</ele>
        <time>2013-08-22T12:43:16.000Z</time>
      </trkpt>
      <trkpt lat="44.52281" lon="6.80739">
        <ele>1980</ele>
        <time>2013-08-22T12:43:25.000Z</time>
      </trkpt>
      <trkpt lat="44.52311" lon="6.80703">
        <ele>1978</ele>
        <time>2013-08-22T12:43:37.000Z</time>
      </trkpt>
      <trkpt lat="44.52342" lon="6.80672">
        <ele>1974</ele>
        <time>2013-08-22T12:43:47.000Z</time>
      </trkpt>
      <trkpt lat="44.52357" lon="6.80682">
        <ele>1972</ele>
        <time>2013-08-22T12:43:57.000Z</time>
      </trkpt>
      <trkpt lat="44.52348" lon="6.80716">
        <ele>1972</ele>
        <time>2013-08-22T12:44:09.000Z</time>
      </trkpt>
      <trkpt lat="44.52344" lon="6.80751">
        <ele>1973</ele>
        <time>2013-08-22T12:44:18.000Z</time>
      </trkpt>
      <trkpt lat="44.52369" lon="6.80755">
        <ele>1971</ele>
        <time>2013-08-22T12:44:23.000Z</time>
      </trkpt>
      <trkpt lat="44.52396" lon="6.80753">
        <ele>1968</ele>
        <time>2013-08-22T12:44:27.000Z</time>
      </trkpt>
      <trkpt lat="44.52446" lon="6.80748">
        <ele>1959</ele>
        <time>2013-08-22T12:44:35.000Z</time>
      </trkpt>
      <trkpt lat="44.52472" lon="6.80755">
        <ele>1951</ele>
        <time>2013-08-22T12:44:42.000Z</time>
      </trkpt>
      <trkpt lat="44.5248" lon="6.8077">
        <ele>1945</ele>
        <time>2013-08-22T12:44:52.000Z</time>
      </trkpt>
      <trkpt lat="44.52487" lon="6.8078">
        <ele>1945</ele>
        <time>2013-08-22T12:44:59.000Z</time>
      </trkpt>
      <trkpt lat="44.52498" lon="6.80766">
        <ele>1945</ele>
        <time>2013-08-22T12:46:18.000Z</time>
      </trkpt>
      <trkpt lat="44.5252" lon="6.80753">
        <ele>1945</ele>
        <time>2013-08-22T12:46:27.000Z</time>
      </trkpt>
      <trkpt lat="44.52544" lon="6.80704">
        <ele>1944</ele>
        <time>2013-08-22T12:46:37.000Z</time>
      </trkpt>
      <trkpt lat="44.52563" lon="6.80631">
        <ele>1944</ele>
        <time>2013-08-22T12:46:52.000Z</time>
      </trkpt>
      <trkpt lat="44.5257" lon="6.80563">
        <ele>1944</ele>
        <time>2013-08-22T12:47:04.000Z</time>
      </trkpt>
      <trkpt lat="44.52575" lon="6.80538">
        <ele>1943</ele>
        <time>2013-08-22T12:47:09.000Z</time>
      </trkpt>
      <trkpt lat="44.52594" lon="6.80477">
        <ele>1940</ele>
        <time>2013-08-22T12:47:18.000Z</time>
      </trkpt>
      <trkpt lat="44.52604" lon="6.80402">
        <ele>1936</ele>
        <time>2013-08-22T12:47:25.000Z</time>
      </trkpt>
      <trkpt lat="44.52601" lon="6.80355">
        <ele>1933</ele>
        <time>2013-08-22T12:47:30.000Z</time>
      </trkpt>
      <trkpt lat="44.52591" lon="6.80261">
        <ele>1929</ele>
        <time>2013-08-22T12:47:40.000Z</time>
      </trkpt>
      <trkpt lat="44.52568" lon="6.80197">
        <ele>1928</ele>
        <time>2013-08-22T12:47:49.000Z</time>
      </trkpt>
      <trkpt lat="44.52552" lon="6.80144">
        <ele>1927</ele>
        <time>2013-08-22T12:47:58.000Z</time>
      </trkpt>
      <trkpt lat="44.52549" lon="6.80141">
        <ele>1925</ele>
        <time>2013-08-22T12:48:02.000Z</time>
      </trkpt>
      <trkpt lat="44.52548" lon="6.80108">
        <ele>1923</ele>
        <time>2013-08-22T12:48:16.000Z</time>
      </trkpt>
      <trkpt lat="44.52544" lon="6.80097">
        <ele>1920</ele>
        <time>2013-08-22T12:51:47.000Z</time>
      </trkpt>
      <trkpt lat="44.52549" lon="6.80015">
        <ele>1919</ele>
        <time>2013-08-22T12:52:02.000Z</time>
      </trkpt>
      <trkpt lat="44.52532" lon="6.79951">
        <ele>1918</ele>
        <time>2013-08-22T12:52:16.000Z</time>
      </trkpt>
      <trkpt lat="44.52527" lon="6.79919">
        <ele>1918</ele>
        <time>2013-08-22T12:52:27.000Z</time>
      </trkpt>
      <trkpt lat="44.52519" lon="6.79881">
        <ele>1918</ele>
        <time>2013-08-22T12:52:40.000Z</time>
      </trkpt>
      <trkpt lat="44.52511" lon="6.79855">
        <ele>1917</ele>
        <time>2013-08-22T12:52:46.000Z</time>
      </trkpt>
      <trkpt lat="44.52504" lon="6.79818">
        <ele>1914</ele>
        <time>2013-08-22T12:52:55.000Z</time>
      </trkpt>
      <trkpt lat="44.52496" lon="6.79773">
        <ele>1912</ele>
        <time>2013-08-22T12:53:06.000Z</time>
      </trkpt>
      <trkpt lat="44.52494" lon="6.79763">
        <ele>1910</ele>
        <time>2013-08-22T12:53:12.000Z</time>
      </trkpt>
      <trkpt lat="44.52496" lon="6.7977">
        <ele>1909</ele>
        <time>2013-08-22T12:53:24.000Z</time>
      </trkpt>
      <trkpt lat="44.52497" lon="6.79759">
        <ele>1911</ele>
        <time>2013-08-22T12:53:41.000Z</time>
      </trkpt>
      <trkpt lat="44.52495" lon="6.79753">
        <ele>1911</ele>
        <time>2013-08-22T12:54:00.000Z</time>
      </trkpt>
      <trkpt lat="44.52491" lon="6.7974">
        <ele>1910</ele>
        <time>2013-08-22T12:54:16.000Z</time>
      </trkpt>
      <trkpt lat="44.52503" lon="6.79761">
        <ele>1912</ele>
        <time>2013-08-22T12:54:51.000Z</time>
      </trkpt>
      <trkpt lat="44.52506" lon="6.79769">
        <ele>1914</ele>
        <time>2013-08-22T12:55:02.000Z</time>
      </trkpt>
      <trkpt lat="44.5251" lon="6.79768">
        <ele>1915</ele>
        <time>2013-08-22T12:55:23.000Z</time>
      </trkpt>
    </trkseg>
  </trk>
</gpx>